<?xml version="1.0" encoding="UTF-8" standalone="no" ?>
<gpx xmlns="http://www.topografix.com/GPX/1/1" xmlns:xsi="http://www.w3.org/2001/XMLSchema-instance" xsi:schemaLocation="http://www.topografix.com/GPX/1/1 http://www.topografix.com/GPX/1/1/gpx.xsd" version="1.1" creator="VisuGPX - https://www.visugpx.com">
  <metadata>
    <name>la ballade du chasseur </name>
    <desc><![CDATA[course nature de 10,9km entre bois et monotraces]]></desc>
  </metadata>
  <trk>
    <name><![CDATA[fartleck sur la balade du chasseur]]></name>
    <trkseg>
      <trkpt lat="44.87417" lon="0.24841">
        <ele>19</ele>
        <time>2013-03-13T14:43:41.000Z</time>
      </trkpt>
      <trkpt lat="44.87425" lon="0.24844">
        <ele>19.200000762939</ele>
        <time>2013-03-13T14:43:45.000Z</time>
      </trkpt>
      <trkpt lat="44.87431" lon="0.24845">
        <ele>19.39999961853</ele>
        <time>2013-03-13T14:43:47.000Z</time>
      </trkpt>
      <trkpt lat="44.87434" lon="0.24844">
        <ele>19.39999961853</ele>
        <time>2013-03-13T14:43:48.000Z</time>
      </trkpt>
      <trkpt lat="44.87437" lon="0.24842">
        <ele>19.39999961853</ele>
        <time>2013-03-13T14:43:49.000Z</time>
      </trkpt>
      <trkpt lat="44.87451" lon="0.24834">
        <ele>19.39999961853</ele>
        <time>2013-03-13T14:43:53.000Z</time>
      </trkpt>
      <trkpt lat="44.87455" lon="0.24831">
        <ele>19.39999961853</ele>
        <time>2013-03-13T14:43:54.000Z</time>
      </trkpt>
      <trkpt lat="44.8747" lon="0.2482">
        <ele>19.60000038147</ele>
        <time>2013-03-13T14:43:59.000Z</time>
      </trkpt>
      <trkpt lat="44.87473" lon="0.24818">
        <ele>19.799999237061</ele>
        <time>2013-03-13T14:44:00.000Z</time>
      </trkpt>
      <trkpt lat="44.87489" lon="0.24816">
        <ele>19.799999237061</ele>
        <time>2013-03-13T14:44:05.000Z</time>
      </trkpt>
      <trkpt lat="44.87504" lon="0.24825">
        <ele>20</ele>
        <time>2013-03-13T14:44:10.000Z</time>
      </trkpt>
      <trkpt lat="44.87507" lon="0.24827">
        <ele>20</ele>
        <time>2013-03-13T14:44:11.000Z</time>
      </trkpt>
      <trkpt lat="44.87515" lon="0.24833">
        <ele>20</ele>
        <time>2013-03-13T14:44:14.000Z</time>
      </trkpt>
      <trkpt lat="44.87524" lon="0.2484">
        <ele>20</ele>
        <time>2013-03-13T14:44:17.000Z</time>
      </trkpt>
      <trkpt lat="44.87533" lon="0.24846">
        <ele>20</ele>
        <time>2013-03-13T14:44:20.000Z</time>
      </trkpt>
      <trkpt lat="44.87541" lon="0.24853">
        <ele>20</ele>
        <time>2013-03-13T14:44:23.000Z</time>
      </trkpt>
      <trkpt lat="44.87549" lon="0.24857">
        <ele>19.799999237061</ele>
        <time>2013-03-13T14:44:26.000Z</time>
      </trkpt>
      <trkpt lat="44.87558" lon="0.24863">
        <ele>19.799999237061</ele>
        <time>2013-03-13T14:44:29.000Z</time>
      </trkpt>
      <trkpt lat="44.8757" lon="0.24868">
        <ele>19.60000038147</ele>
        <time>2013-03-13T14:44:33.000Z</time>
      </trkpt>
      <trkpt lat="44.87576" lon="0.24869">
        <ele>19.60000038147</ele>
        <time>2013-03-13T14:44:35.000Z</time>
      </trkpt>
      <trkpt lat="44.87588" lon="0.24868">
        <ele>19.60000038147</ele>
        <time>2013-03-13T14:44:39.000Z</time>
      </trkpt>
      <trkpt lat="44.87596" lon="0.24863">
        <ele>19.60000038147</ele>
        <time>2013-03-13T14:44:42.000Z</time>
      </trkpt>
      <trkpt lat="44.87598" lon="0.2486">
        <ele>19.799999237061</ele>
        <time>2013-03-13T14:44:43.000Z</time>
      </trkpt>
      <trkpt lat="44.87607" lon="0.2484">
        <ele>20.200000762939</ele>
        <time>2013-03-13T14:44:48.000Z</time>
      </trkpt>
      <trkpt lat="44.87609" lon="0.24836">
        <ele>20.200000762939</ele>
        <time>2013-03-13T14:44:49.000Z</time>
      </trkpt>
      <trkpt lat="44.87622" lon="0.24825">
        <ele>20.39999961853</ele>
        <time>2013-03-13T14:44:54.000Z</time>
      </trkpt>
      <trkpt lat="44.8764" lon="0.24822">
        <ele>20.799999237061</ele>
        <time>2013-03-13T14:45:00.000Z</time>
      </trkpt>
      <trkpt lat="44.87658" lon="0.2482">
        <ele>21</ele>
        <time>2013-03-13T14:45:06.000Z</time>
      </trkpt>
      <trkpt lat="44.87661" lon="0.24819">
        <ele>21</ele>
        <time>2013-03-13T14:45:07.000Z</time>
      </trkpt>
      <trkpt lat="44.87676" lon="0.24817">
        <ele>21.200000762939</ele>
        <time>2013-03-13T14:45:12.000Z</time>
      </trkpt>
      <trkpt lat="44.87679" lon="0.24816">
        <ele>21.200000762939</ele>
        <time>2013-03-13T14:45:13.000Z</time>
      </trkpt>
      <trkpt lat="44.87694" lon="0.24812">
        <ele>21.39999961853</ele>
        <time>2013-03-13T14:45:18.000Z</time>
      </trkpt>
      <trkpt lat="44.87697" lon="0.24812">
        <ele>21.39999961853</ele>
        <time>2013-03-13T14:45:19.000Z</time>
      </trkpt>
      <trkpt lat="44.87713" lon="0.24809">
        <ele>21.60000038147</ele>
        <time>2013-03-13T14:45:24.000Z</time>
      </trkpt>
      <trkpt lat="44.87716" lon="0.24809">
        <ele>21.60000038147</ele>
        <time>2013-03-13T14:45:25.000Z</time>
      </trkpt>
      <trkpt lat="44.87731" lon="0.24807">
        <ele>21.799999237061</ele>
        <time>2013-03-13T14:45:30.000Z</time>
      </trkpt>
      <trkpt lat="44.87734" lon="0.24806">
        <ele>21.799999237061</ele>
        <time>2013-03-13T14:45:31.000Z</time>
      </trkpt>
      <trkpt lat="44.87749" lon="0.24806">
        <ele>21.799999237061</ele>
        <time>2013-03-13T14:45:36.000Z</time>
      </trkpt>
      <trkpt lat="44.87752" lon="0.24809">
        <ele>21.799999237061</ele>
        <time>2013-03-13T14:45:37.000Z</time>
      </trkpt>
      <trkpt lat="44.87754" lon="0.24817">
        <ele>21.799999237061</ele>
        <time>2013-03-13T14:45:39.000Z</time>
      </trkpt>
      <trkpt lat="44.87756" lon="0.24836">
        <ele>21.799999237061</ele>
        <time>2013-03-13T14:45:43.000Z</time>
      </trkpt>
      <trkpt lat="44.87756" lon="0.24845">
        <ele>21.799999237061</ele>
        <time>2013-03-13T14:45:45.000Z</time>
      </trkpt>
      <trkpt lat="44.87755" lon="0.24864">
        <ele>21.799999237061</ele>
        <time>2013-03-13T14:45:49.000Z</time>
      </trkpt>
      <trkpt lat="44.87755" lon="0.24873">
        <ele>21.799999237061</ele>
        <time>2013-03-13T14:45:51.000Z</time>
      </trkpt>
      <trkpt lat="44.87754" lon="0.24891">
        <ele>21.799999237061</ele>
        <time>2013-03-13T14:45:55.000Z</time>
      </trkpt>
      <trkpt lat="44.87752" lon="0.24904">
        <ele>21.799999237061</ele>
        <time>2013-03-13T14:45:58.000Z</time>
      </trkpt>
      <trkpt lat="44.8775" lon="0.24918">
        <ele>21.799999237061</ele>
        <time>2013-03-13T14:46:01.000Z</time>
      </trkpt>
      <trkpt lat="44.87749" lon="0.24926">
        <ele>21.799999237061</ele>
        <time>2013-03-13T14:46:03.000Z</time>
      </trkpt>
      <trkpt lat="44.87747" lon="0.24943">
        <ele>21.799999237061</ele>
        <time>2013-03-13T14:46:07.000Z</time>
      </trkpt>
      <trkpt lat="44.87746" lon="0.24952">
        <ele>21.799999237061</ele>
        <time>2013-03-13T14:46:09.000Z</time>
      </trkpt>
      <trkpt lat="44.87743" lon="0.24969">
        <ele>21.799999237061</ele>
        <time>2013-03-13T14:46:13.000Z</time>
      </trkpt>
      <trkpt lat="44.8774" lon="0.24982">
        <ele>21.60000038147</ele>
        <time>2013-03-13T14:46:16.000Z</time>
      </trkpt>
      <trkpt lat="44.87738" lon="0.24994">
        <ele>21.60000038147</ele>
        <time>2013-03-13T14:46:19.000Z</time>
      </trkpt>
      <trkpt lat="44.87736" lon="0.25011">
        <ele>21.39999961853</ele>
        <time>2013-03-13T14:46:23.000Z</time>
      </trkpt>
      <trkpt lat="44.87735" lon="0.2502">
        <ele>21.39999961853</ele>
        <time>2013-03-13T14:46:25.000Z</time>
      </trkpt>
      <trkpt lat="44.87733" lon="0.25037">
        <ele>21.200000762939</ele>
        <time>2013-03-13T14:46:29.000Z</time>
      </trkpt>
      <trkpt lat="44.87733" lon="0.25046">
        <ele>21.200000762939</ele>
        <time>2013-03-13T14:46:31.000Z</time>
      </trkpt>
      <trkpt lat="44.87732" lon="0.25068">
        <ele>21</ele>
        <time>2013-03-13T14:46:36.000Z</time>
      </trkpt>
      <trkpt lat="44.87732" lon="0.25072">
        <ele>21</ele>
        <time>2013-03-13T14:46:37.000Z</time>
      </trkpt>
      <trkpt lat="44.87731" lon="0.25094">
        <ele>21</ele>
        <time>2013-03-13T14:46:42.000Z</time>
      </trkpt>
      <trkpt lat="44.87731" lon="0.25099">
        <ele>21</ele>
        <time>2013-03-13T14:46:43.000Z</time>
      </trkpt>
      <trkpt lat="44.87731" lon="0.25122">
        <ele>21</ele>
        <time>2013-03-13T14:46:48.000Z</time>
      </trkpt>
      <trkpt lat="44.87731" lon="0.25126">
        <ele>21</ele>
        <time>2013-03-13T14:46:49.000Z</time>
      </trkpt>
      <trkpt lat="44.87731" lon="0.25148">
        <ele>21</ele>
        <time>2013-03-13T14:46:54.000Z</time>
      </trkpt>
      <trkpt lat="44.87732" lon="0.25152">
        <ele>21</ele>
        <time>2013-03-13T14:46:55.000Z</time>
      </trkpt>
      <trkpt lat="44.87732" lon="0.25174">
        <ele>21</ele>
        <time>2013-03-13T14:47:00.000Z</time>
      </trkpt>
      <trkpt lat="44.87732" lon="0.25179">
        <ele>21</ele>
        <time>2013-03-13T14:47:01.000Z</time>
      </trkpt>
      <trkpt lat="44.87734" lon="0.252">
        <ele>21</ele>
        <time>2013-03-13T14:47:06.000Z</time>
      </trkpt>
      <trkpt lat="44.87734" lon="0.25204">
        <ele>21</ele>
        <time>2013-03-13T14:47:07.000Z</time>
      </trkpt>
      <trkpt lat="44.87741" lon="0.25218">
        <ele>21</ele>
        <time>2013-03-13T14:47:11.000Z</time>
      </trkpt>
      <trkpt lat="44.87749" lon="0.25221">
        <ele>21</ele>
        <time>2013-03-13T14:47:14.000Z</time>
      </trkpt>
      <trkpt lat="44.87752" lon="0.25222">
        <ele>20.799999237061</ele>
        <time>2013-03-13T14:47:15.000Z</time>
      </trkpt>
      <trkpt lat="44.87766" lon="0.25232">
        <ele>20.799999237061</ele>
        <time>2013-03-13T14:47:20.000Z</time>
      </trkpt>
      <trkpt lat="44.87775" lon="0.25249">
        <ele>20.60000038147</ele>
        <time>2013-03-13T14:47:25.000Z</time>
      </trkpt>
      <trkpt lat="44.87777" lon="0.25253">
        <ele>20.60000038147</ele>
        <time>2013-03-13T14:47:26.000Z</time>
      </trkpt>
      <trkpt lat="44.87787" lon="0.25275">
        <ele>20.60000038147</ele>
        <time>2013-03-13T14:47:32.000Z</time>
      </trkpt>
      <trkpt lat="44.87795" lon="0.25295">
        <ele>20.60000038147</ele>
        <time>2013-03-13T14:47:37.000Z</time>
      </trkpt>
      <trkpt lat="44.87796" lon="0.25298">
        <ele>20.60000038147</ele>
        <time>2013-03-13T14:47:38.000Z</time>
      </trkpt>
      <trkpt lat="44.87805" lon="0.25317">
        <ele>20.799999237061</ele>
        <time>2013-03-13T14:47:43.000Z</time>
      </trkpt>
      <trkpt lat="44.87807" lon="0.2532">
        <ele>20.799999237061</ele>
        <time>2013-03-13T14:47:44.000Z</time>
      </trkpt>
      <trkpt lat="44.87817" lon="0.25336">
        <ele>20.799999237061</ele>
        <time>2013-03-13T14:47:49.000Z</time>
      </trkpt>
      <trkpt lat="44.8782" lon="0.25339">
        <ele>20.799999237061</ele>
        <time>2013-03-13T14:47:50.000Z</time>
      </trkpt>
      <trkpt lat="44.87831" lon="0.25353">
        <ele>20.60000038147</ele>
        <time>2013-03-13T14:47:55.000Z</time>
      </trkpt>
      <trkpt lat="44.87836" lon="0.25359">
        <ele>20.60000038147</ele>
        <time>2013-03-13T14:47:57.000Z</time>
      </trkpt>
      <trkpt lat="44.87845" lon="0.2537">
        <ele>20.799999237061</ele>
        <time>2013-03-13T14:48:01.000Z</time>
      </trkpt>
      <trkpt lat="44.8785" lon="0.25375">
        <ele>20.799999237061</ele>
        <time>2013-03-13T14:48:03.000Z</time>
      </trkpt>
      <trkpt lat="44.87857" lon="0.25383">
        <ele>20.799999237061</ele>
        <time>2013-03-13T14:48:06.000Z</time>
      </trkpt>
      <trkpt lat="44.87864" lon="0.25392">
        <ele>21</ele>
        <time>2013-03-13T14:48:09.000Z</time>
      </trkpt>
      <trkpt lat="44.87868" lon="0.25397">
        <ele>21</ele>
        <time>2013-03-13T14:48:11.000Z</time>
      </trkpt>
      <trkpt lat="44.87878" lon="0.25408">
        <ele>21</ele>
        <time>2013-03-13T14:48:15.000Z</time>
      </trkpt>
      <trkpt lat="44.8788" lon="0.25411">
        <ele>21</ele>
        <time>2013-03-13T14:48:16.000Z</time>
      </trkpt>
      <trkpt lat="44.87892" lon="0.25425">
        <ele>21.200000762939</ele>
        <time>2013-03-13T14:48:21.000Z</time>
      </trkpt>
      <trkpt lat="44.87895" lon="0.25427">
        <ele>21.200000762939</ele>
        <time>2013-03-13T14:48:22.000Z</time>
      </trkpt>
      <trkpt lat="44.87907" lon="0.2544">
        <ele>21.39999961853</ele>
        <time>2013-03-13T14:48:27.000Z</time>
      </trkpt>
      <trkpt lat="44.8791" lon="0.25443">
        <ele>21.39999961853</ele>
        <time>2013-03-13T14:48:28.000Z</time>
      </trkpt>
      <trkpt lat="44.87923" lon="0.25454">
        <ele>21.39999961853</ele>
        <time>2013-03-13T14:48:33.000Z</time>
      </trkpt>
      <trkpt lat="44.87926" lon="0.25456">
        <ele>21.39999961853</ele>
        <time>2013-03-13T14:48:34.000Z</time>
      </trkpt>
      <trkpt lat="44.8794" lon="0.25465">
        <ele>21.39999961853</ele>
        <time>2013-03-13T14:48:39.000Z</time>
      </trkpt>
      <trkpt lat="44.87942" lon="0.25467">
        <ele>21.39999961853</ele>
        <time>2013-03-13T14:48:40.000Z</time>
      </trkpt>
      <trkpt lat="44.87957" lon="0.25475">
        <ele>21.60000038147</ele>
        <time>2013-03-13T14:48:45.000Z</time>
      </trkpt>
      <trkpt lat="44.87976" lon="0.25474">
        <ele>21.60000038147</ele>
        <time>2013-03-13T14:48:51.000Z</time>
      </trkpt>
      <trkpt lat="44.8799" lon="0.25469">
        <ele>21.799999237061</ele>
        <time>2013-03-13T14:48:56.000Z</time>
      </trkpt>
      <trkpt lat="44.87994" lon="0.25468">
        <ele>21.799999237061</ele>
        <time>2013-03-13T14:48:57.000Z</time>
      </trkpt>
      <trkpt lat="44.88006" lon="0.25465">
        <ele>22</ele>
        <time>2013-03-13T14:49:01.000Z</time>
      </trkpt>
      <trkpt lat="44.88013" lon="0.25464">
        <ele>22</ele>
        <time>2013-03-13T14:49:03.000Z</time>
      </trkpt>
      <trkpt lat="44.88026" lon="0.25462">
        <ele>22</ele>
        <time>2013-03-13T14:49:07.000Z</time>
      </trkpt>
      <trkpt lat="44.88032" lon="0.25462">
        <ele>22</ele>
        <time>2013-03-13T14:49:09.000Z</time>
      </trkpt>
      <trkpt lat="44.88048" lon="0.25463">
        <ele>22</ele>
        <time>2013-03-13T14:49:14.000Z</time>
      </trkpt>
      <trkpt lat="44.88051" lon="0.25463">
        <ele>22</ele>
        <time>2013-03-13T14:49:15.000Z</time>
      </trkpt>
      <trkpt lat="44.88066" lon="0.25466">
        <ele>22</ele>
        <time>2013-03-13T14:49:20.000Z</time>
      </trkpt>
      <trkpt lat="44.88069" lon="0.25467">
        <ele>22</ele>
        <time>2013-03-13T14:49:21.000Z</time>
      </trkpt>
      <trkpt lat="44.88087" lon="0.25472">
        <ele>21.799999237061</ele>
        <time>2013-03-13T14:49:27.000Z</time>
      </trkpt>
      <trkpt lat="44.8809" lon="0.25473">
        <ele>21.799999237061</ele>
        <time>2013-03-13T14:49:28.000Z</time>
      </trkpt>
      <trkpt lat="44.88106" lon="0.25478">
        <ele>21.60000038147</ele>
        <time>2013-03-13T14:49:33.000Z</time>
      </trkpt>
      <trkpt lat="44.88109" lon="0.25479">
        <ele>21.60000038147</ele>
        <time>2013-03-13T14:49:34.000Z</time>
      </trkpt>
      <trkpt lat="44.88125" lon="0.25484">
        <ele>21.39999961853</ele>
        <time>2013-03-13T14:49:39.000Z</time>
      </trkpt>
      <trkpt lat="44.88128" lon="0.25485">
        <ele>21.39999961853</ele>
        <time>2013-03-13T14:49:40.000Z</time>
      </trkpt>
      <trkpt lat="44.88143" lon="0.25489">
        <ele>21.200000762939</ele>
        <time>2013-03-13T14:49:45.000Z</time>
      </trkpt>
      <trkpt lat="44.88153" lon="0.25492">
        <ele>21.200000762939</ele>
        <time>2013-03-13T14:49:48.000Z</time>
      </trkpt>
      <trkpt lat="44.88161" lon="0.25498">
        <ele>21</ele>
        <time>2013-03-13T14:49:51.000Z</time>
      </trkpt>
      <trkpt lat="44.88167" lon="0.25502">
        <ele>21</ele>
        <time>2013-03-13T14:49:53.000Z</time>
      </trkpt>
      <trkpt lat="44.88177" lon="0.25512">
        <ele>21.200000762939</ele>
        <time>2013-03-13T14:49:57.000Z</time>
      </trkpt>
      <trkpt lat="44.88182" lon="0.25518">
        <ele>21.200000762939</ele>
        <time>2013-03-13T14:49:59.000Z</time>
      </trkpt>
      <trkpt lat="44.88191" lon="0.2553">
        <ele>21.39999961853</ele>
        <time>2013-03-13T14:50:03.000Z</time>
      </trkpt>
      <trkpt lat="44.88198" lon="0.25538">
        <ele>21.39999961853</ele>
        <time>2013-03-13T14:50:06.000Z</time>
      </trkpt>
      <trkpt lat="44.88206" lon="0.25546">
        <ele>21.60000038147</ele>
        <time>2013-03-13T14:50:09.000Z</time>
      </trkpt>
      <trkpt lat="44.88211" lon="0.25551">
        <ele>21.60000038147</ele>
        <time>2013-03-13T14:50:11.000Z</time>
      </trkpt>
      <trkpt lat="44.88222" lon="0.2556">
        <ele>21.799999237061</ele>
        <time>2013-03-13T14:50:15.000Z</time>
      </trkpt>
      <trkpt lat="44.88225" lon="0.25562">
        <ele>21.799999237061</ele>
        <time>2013-03-13T14:50:16.000Z</time>
      </trkpt>
      <trkpt lat="44.88238" lon="0.25572">
        <ele>21.799999237061</ele>
        <time>2013-03-13T14:50:21.000Z</time>
      </trkpt>
      <trkpt lat="44.88244" lon="0.25576">
        <ele>22</ele>
        <time>2013-03-13T14:50:23.000Z</time>
      </trkpt>
      <trkpt lat="44.88255" lon="0.25582">
        <ele>22</ele>
        <time>2013-03-13T14:50:27.000Z</time>
      </trkpt>
      <trkpt lat="44.88261" lon="0.25585">
        <ele>22.200000762939</ele>
        <time>2013-03-13T14:50:29.000Z</time>
      </trkpt>
      <trkpt lat="44.88272" lon="0.25591">
        <ele>22.39999961853</ele>
        <time>2013-03-13T14:50:33.000Z</time>
      </trkpt>
      <trkpt lat="44.88278" lon="0.25594">
        <ele>22.60000038147</ele>
        <time>2013-03-13T14:50:35.000Z</time>
      </trkpt>
      <trkpt lat="44.8829" lon="0.25599">
        <ele>22.799999237061</ele>
        <time>2013-03-13T14:50:39.000Z</time>
      </trkpt>
      <trkpt lat="44.88299" lon="0.25602">
        <ele>23</ele>
        <time>2013-03-13T14:50:42.000Z</time>
      </trkpt>
      <trkpt lat="44.88308" lon="0.25606">
        <ele>23.200000762939</ele>
        <time>2013-03-13T14:50:45.000Z</time>
      </trkpt>
      <trkpt lat="44.88317" lon="0.25609">
        <ele>23.200000762939</ele>
        <time>2013-03-13T14:50:48.000Z</time>
      </trkpt>
      <trkpt lat="44.88326" lon="0.25612">
        <ele>23.39999961853</ele>
        <time>2013-03-13T14:50:51.000Z</time>
      </trkpt>
      <trkpt lat="44.88332" lon="0.25614">
        <ele>23.60000038147</ele>
        <time>2013-03-13T14:50:53.000Z</time>
      </trkpt>
      <trkpt lat="44.88343" lon="0.25618">
        <ele>23.39999961853</ele>
        <time>2013-03-13T14:50:57.000Z</time>
      </trkpt>
      <trkpt lat="44.88353" lon="0.25621">
        <ele>23.39999961853</ele>
        <time>2013-03-13T14:51:00.000Z</time>
      </trkpt>
      <trkpt lat="44.88362" lon="0.25622">
        <ele>23.200000762939</ele>
        <time>2013-03-13T14:51:03.000Z</time>
      </trkpt>
      <trkpt lat="44.88368" lon="0.25624">
        <ele>23.200000762939</ele>
        <time>2013-03-13T14:51:05.000Z</time>
      </trkpt>
      <trkpt lat="44.88381" lon="0.25627">
        <ele>23</ele>
        <time>2013-03-13T14:51:09.000Z</time>
      </trkpt>
      <trkpt lat="44.88387" lon="0.25628">
        <ele>23</ele>
        <time>2013-03-13T14:51:11.000Z</time>
      </trkpt>
      <trkpt lat="44.88399" lon="0.25628">
        <ele>23</ele>
        <time>2013-03-13T14:51:15.000Z</time>
      </trkpt>
      <trkpt lat="44.88412" lon="0.25628">
        <ele>22.799999237061</ele>
        <time>2013-03-13T14:51:19.000Z</time>
      </trkpt>
      <trkpt lat="44.88419" lon="0.25628">
        <ele>22.799999237061</ele>
        <time>2013-03-13T14:51:21.000Z</time>
      </trkpt>
      <trkpt lat="44.88431" lon="0.25626">
        <ele>23.39999961853</ele>
        <time>2013-03-13T14:51:25.000Z</time>
      </trkpt>
      <trkpt lat="44.88438" lon="0.25626">
        <ele>23.60000038147</ele>
        <time>2013-03-13T14:51:27.000Z</time>
      </trkpt>
      <trkpt lat="44.88447" lon="0.25624">
        <ele>23.799999237061</ele>
        <time>2013-03-13T14:51:30.000Z</time>
      </trkpt>
      <trkpt lat="44.88456" lon="0.25619">
        <ele>24.200000762939</ele>
        <time>2013-03-13T14:51:33.000Z</time>
      </trkpt>
      <trkpt lat="44.88462" lon="0.25617">
        <ele>24.39999961853</ele>
        <time>2013-03-13T14:51:35.000Z</time>
      </trkpt>
      <trkpt lat="44.88474" lon="0.2561">
        <ele>24.799999237061</ele>
        <time>2013-03-13T14:51:39.000Z</time>
      </trkpt>
      <trkpt lat="44.88477" lon="0.25608">
        <ele>25</ele>
        <time>2013-03-13T14:51:40.000Z</time>
      </trkpt>
      <trkpt lat="44.88492" lon="0.256">
        <ele>25.39999961853</ele>
        <time>2013-03-13T14:51:45.000Z</time>
      </trkpt>
      <trkpt lat="44.88504" lon="0.25595">
        <ele>26.200000762939</ele>
        <time>2013-03-13T14:51:49.000Z</time>
      </trkpt>
      <trkpt lat="44.8851" lon="0.25594">
        <ele>26.799999237061</ele>
        <time>2013-03-13T14:51:51.000Z</time>
      </trkpt>
      <trkpt lat="44.8852" lon="0.25594">
        <ele>27.799999237061</ele>
        <time>2013-03-13T14:51:54.000Z</time>
      </trkpt>
      <trkpt lat="44.88529" lon="0.25595">
        <ele>28.799999237061</ele>
        <time>2013-03-13T14:51:57.000Z</time>
      </trkpt>
      <trkpt lat="44.88544" lon="0.25598">
        <ele>30.200000762939</ele>
        <time>2013-03-13T14:52:02.000Z</time>
      </trkpt>
      <trkpt lat="44.88547" lon="0.25599">
        <ele>30.60000038147</ele>
        <time>2013-03-13T14:52:03.000Z</time>
      </trkpt>
      <trkpt lat="44.88562" lon="0.25606">
        <ele>31.60000038147</ele>
        <time>2013-03-13T14:52:08.000Z</time>
      </trkpt>
      <trkpt lat="44.88566" lon="0.2561">
        <ele>32</ele>
        <time>2013-03-13T14:52:10.000Z</time>
      </trkpt>
      <trkpt lat="44.88575" lon="0.25617">
        <ele>32.599998474121</ele>
        <time>2013-03-13T14:52:14.000Z</time>
      </trkpt>
      <trkpt lat="44.88582" lon="0.25623">
        <ele>32.799999237061</ele>
        <time>2013-03-13T14:52:17.000Z</time>
      </trkpt>
      <trkpt lat="44.8859" lon="0.25631">
        <ele>33.599998474121</ele>
        <time>2013-03-13T14:52:21.000Z</time>
      </trkpt>
      <trkpt lat="44.88599" lon="0.25635">
        <ele>34.799999237061</ele>
        <time>2013-03-13T14:52:25.000Z</time>
      </trkpt>
      <trkpt lat="44.88601" lon="0.25635">
        <ele>35</ele>
        <time>2013-03-13T14:52:26.000Z</time>
      </trkpt>
      <trkpt lat="44.88612" lon="0.25636">
        <ele>36.799999237061</ele>
        <time>2013-03-13T14:52:31.000Z</time>
      </trkpt>
      <trkpt lat="44.88617" lon="0.25636">
        <ele>37.599998474121</ele>
        <time>2013-03-13T14:52:33.000Z</time>
      </trkpt>
      <trkpt lat="44.88629" lon="0.25639">
        <ele>39.400001525879</ele>
        <time>2013-03-13T14:52:38.000Z</time>
      </trkpt>
      <trkpt lat="44.88637" lon="0.25639">
        <ele>40.599998474121</ele>
        <time>2013-03-13T14:52:41.000Z</time>
      </trkpt>
      <trkpt lat="44.88643" lon="0.25643">
        <ele>41.400001525879</ele>
        <time>2013-03-13T14:52:44.000Z</time>
      </trkpt>
      <trkpt lat="44.88648" lon="0.25658">
        <ele>42.400001525879</ele>
        <time>2013-03-13T14:52:49.000Z</time>
      </trkpt>
      <trkpt lat="44.88643" lon="0.25679">
        <ele>41.599998474121</ele>
        <time>2013-03-13T14:52:54.000Z</time>
      </trkpt>
      <trkpt lat="44.88641" lon="0.25683">
        <ele>41.400001525879</ele>
        <time>2013-03-13T14:52:55.000Z</time>
      </trkpt>
      <trkpt lat="44.88634" lon="0.25703">
        <ele>40.200000762939</ele>
        <time>2013-03-13T14:53:00.000Z</time>
      </trkpt>
      <trkpt lat="44.88632" lon="0.25706">
        <ele>40</ele>
        <time>2013-03-13T14:53:01.000Z</time>
      </trkpt>
      <trkpt lat="44.88626" lon="0.25725">
        <ele>38.799999237061</ele>
        <time>2013-03-13T14:53:06.000Z</time>
      </trkpt>
      <trkpt lat="44.88624" lon="0.25729">
        <ele>38.599998474121</ele>
        <time>2013-03-13T14:53:07.000Z</time>
      </trkpt>
      <trkpt lat="44.88618" lon="0.25749">
        <ele>37.799999237061</ele>
        <time>2013-03-13T14:53:12.000Z</time>
      </trkpt>
      <trkpt lat="44.88616" lon="0.25753">
        <ele>37.599998474121</ele>
        <time>2013-03-13T14:53:13.000Z</time>
      </trkpt>
      <trkpt lat="44.8861" lon="0.25773">
        <ele>37.200000762939</ele>
        <time>2013-03-13T14:53:18.000Z</time>
      </trkpt>
      <trkpt lat="44.88609" lon="0.25777">
        <ele>37.200000762939</ele>
        <time>2013-03-13T14:53:19.000Z</time>
      </trkpt>
      <trkpt lat="44.88604" lon="0.25794">
        <ele>37</ele>
        <time>2013-03-13T14:53:23.000Z</time>
      </trkpt>
      <trkpt lat="44.88602" lon="0.25802">
        <ele>36.799999237061</ele>
        <time>2013-03-13T14:53:25.000Z</time>
      </trkpt>
      <trkpt lat="44.88595" lon="0.25818">
        <ele>36.200000762939</ele>
        <time>2013-03-13T14:53:29.000Z</time>
      </trkpt>
      <trkpt lat="44.88592" lon="0.25826">
        <ele>36</ele>
        <time>2013-03-13T14:53:31.000Z</time>
      </trkpt>
      <trkpt lat="44.88582" lon="0.2584">
        <ele>35</ele>
        <time>2013-03-13T14:53:35.000Z</time>
      </trkpt>
      <trkpt lat="44.88577" lon="0.25846">
        <ele>34.400001525879</ele>
        <time>2013-03-13T14:53:37.000Z</time>
      </trkpt>
      <trkpt lat="44.88569" lon="0.25854">
        <ele>33.400001525879</ele>
        <time>2013-03-13T14:53:40.000Z</time>
      </trkpt>
      <trkpt lat="44.88563" lon="0.25864">
        <ele>32.799999237061</ele>
        <time>2013-03-13T14:53:43.000Z</time>
      </trkpt>
      <trkpt lat="44.88561" lon="0.25872">
        <ele>32.799999237061</ele>
        <time>2013-03-13T14:53:45.000Z</time>
      </trkpt>
      <trkpt lat="44.88562" lon="0.25889">
        <ele>33.200000762939</ele>
        <time>2013-03-13T14:53:49.000Z</time>
      </trkpt>
      <trkpt lat="44.88563" lon="0.25898">
        <ele>33.599998474121</ele>
        <time>2013-03-13T14:53:51.000Z</time>
      </trkpt>
      <trkpt lat="44.88567" lon="0.25913">
        <ele>34.400001525879</ele>
        <time>2013-03-13T14:53:55.000Z</time>
      </trkpt>
      <trkpt lat="44.88568" lon="0.25917">
        <ele>34.799999237061</ele>
        <time>2013-03-13T14:53:56.000Z</time>
      </trkpt>
      <trkpt lat="44.88576" lon="0.25939">
        <ele>34.799999237061</ele>
        <time>2013-03-13T14:54:02.000Z</time>
      </trkpt>
      <trkpt lat="44.88581" lon="0.25959">
        <ele>34.599998474121</ele>
        <time>2013-03-13T14:54:07.000Z</time>
      </trkpt>
      <trkpt lat="44.88582" lon="0.25967">
        <ele>34.400001525879</ele>
        <time>2013-03-13T14:54:09.000Z</time>
      </trkpt>
      <trkpt lat="44.88586" lon="0.25983">
        <ele>34.200000762939</ele>
        <time>2013-03-13T14:54:13.000Z</time>
      </trkpt>
      <trkpt lat="44.8859" lon="0.25994">
        <ele>34</ele>
        <time>2013-03-13T14:54:16.000Z</time>
      </trkpt>
      <trkpt lat="44.88593" lon="0.26006">
        <ele>34.200000762939</ele>
        <time>2013-03-13T14:54:19.000Z</time>
      </trkpt>
      <trkpt lat="44.88595" lon="0.26019">
        <ele>34.200000762939</ele>
        <time>2013-03-13T14:54:22.000Z</time>
      </trkpt>
      <trkpt lat="44.88596" lon="0.26032">
        <ele>34.200000762939</ele>
        <time>2013-03-13T14:54:25.000Z</time>
      </trkpt>
      <trkpt lat="44.88601" lon="0.26045">
        <ele>34.599998474121</ele>
        <time>2013-03-13T14:54:29.000Z</time>
      </trkpt>
      <trkpt lat="44.88602" lon="0.26048">
        <ele>34.799999237061</ele>
        <time>2013-03-13T14:54:30.000Z</time>
      </trkpt>
      <trkpt lat="44.88612" lon="0.26057">
        <ele>36</ele>
        <time>2013-03-13T14:54:34.000Z</time>
      </trkpt>
      <trkpt lat="44.88614" lon="0.2606">
        <ele>36.200000762939</ele>
        <time>2013-03-13T14:54:35.000Z</time>
      </trkpt>
      <trkpt lat="44.88621" lon="0.26068">
        <ele>37</ele>
        <time>2013-03-13T14:54:38.000Z</time>
      </trkpt>
      <trkpt lat="44.88623" lon="0.26068">
        <ele>37.200000762939</ele>
        <time>2013-03-13T14:54:39.000Z</time>
      </trkpt>
      <trkpt lat="44.88631" lon="0.26071">
        <ele>38.400001525879</ele>
        <time>2013-03-13T14:54:42.000Z</time>
      </trkpt>
      <trkpt lat="44.88634" lon="0.26072">
        <ele>38.799999237061</ele>
        <time>2013-03-13T14:54:43.000Z</time>
      </trkpt>
      <trkpt lat="44.88637" lon="0.26073">
        <ele>39</ele>
        <time>2013-03-13T14:54:44.000Z</time>
      </trkpt>
      <trkpt lat="44.88641" lon="0.26076">
        <ele>39.599998474121</ele>
        <time>2013-03-13T14:54:46.000Z</time>
      </trkpt>
      <trkpt lat="44.88644" lon="0.26076">
        <ele>40</ele>
        <time>2013-03-13T14:54:47.000Z</time>
      </trkpt>
      <trkpt lat="44.88649" lon="0.26077">
        <ele>40.599998474121</ele>
        <time>2013-03-13T14:54:49.000Z</time>
      </trkpt>
      <trkpt lat="44.88656" lon="0.26078">
        <ele>41.599998474121</ele>
        <time>2013-03-13T14:54:52.000Z</time>
      </trkpt>
      <trkpt lat="44.88667" lon="0.26081">
        <ele>43</ele>
        <time>2013-03-13T14:54:56.000Z</time>
      </trkpt>
      <trkpt lat="44.88669" lon="0.26081">
        <ele>43.200000762939</ele>
        <time>2013-03-13T14:54:57.000Z</time>
      </trkpt>
      <trkpt lat="44.88684" lon="0.26074">
        <ele>44.799999237061</ele>
        <time>2013-03-13T14:55:03.000Z</time>
      </trkpt>
      <trkpt lat="44.88687" lon="0.26072">
        <ele>45.200000762939</ele>
        <time>2013-03-13T14:55:04.000Z</time>
      </trkpt>
      <trkpt lat="44.88698" lon="0.26064">
        <ele>46.799999237061</ele>
        <time>2013-03-13T14:55:08.000Z</time>
      </trkpt>
      <trkpt lat="44.88704" lon="0.2606">
        <ele>47.599998474121</ele>
        <time>2013-03-13T14:55:10.000Z</time>
      </trkpt>
      <trkpt lat="44.88712" lon="0.26055">
        <ele>49</ele>
        <time>2013-03-13T14:55:13.000Z</time>
      </trkpt>
      <trkpt lat="44.88721" lon="0.26052">
        <ele>50.200000762939</ele>
        <time>2013-03-13T14:55:16.000Z</time>
      </trkpt>
      <trkpt lat="44.88728" lon="0.26051">
        <ele>51.200000762939</ele>
        <time>2013-03-13T14:55:18.000Z</time>
      </trkpt>
      <trkpt lat="44.88739" lon="0.26058">
        <ele>52</ele>
        <time>2013-03-13T14:55:22.000Z</time>
      </trkpt>
      <trkpt lat="44.88742" lon="0.2606">
        <ele>52.200000762939</ele>
        <time>2013-03-13T14:55:23.000Z</time>
      </trkpt>
      <trkpt lat="44.88751" lon="0.26069">
        <ele>52.400001525879</ele>
        <time>2013-03-13T14:55:27.000Z</time>
      </trkpt>
      <trkpt lat="44.88755" lon="0.26071">
        <ele>52.400001525879</ele>
        <time>2013-03-13T14:55:29.000Z</time>
      </trkpt>
      <trkpt lat="44.88762" lon="0.26075">
        <ele>52.400001525879</ele>
        <time>2013-03-13T14:55:32.000Z</time>
      </trkpt>
      <trkpt lat="44.88772" lon="0.26077">
        <ele>53</ele>
        <time>2013-03-13T14:55:35.000Z</time>
      </trkpt>
      <trkpt lat="44.88777" lon="0.26077">
        <ele>53.200000762939</ele>
        <time>2013-03-13T14:55:37.000Z</time>
      </trkpt>
      <trkpt lat="44.88789" lon="0.26069">
        <ele>54.400001525879</ele>
        <time>2013-03-13T14:55:42.000Z</time>
      </trkpt>
      <trkpt lat="44.88791" lon="0.26067">
        <ele>54.799999237061</ele>
        <time>2013-03-13T14:55:43.000Z</time>
      </trkpt>
      <trkpt lat="44.88801" lon="0.26054">
        <ele>55.799999237061</ele>
        <time>2013-03-13T14:55:49.000Z</time>
      </trkpt>
      <trkpt lat="44.88804" lon="0.26049">
        <ele>56.200000762939</ele>
        <time>2013-03-13T14:55:51.000Z</time>
      </trkpt>
      <trkpt lat="44.88808" lon="0.26046">
        <ele>56.400001525879</ele>
        <time>2013-03-13T14:55:53.000Z</time>
      </trkpt>
      <trkpt lat="44.88809" lon="0.26045">
        <ele>56.599998474121</ele>
        <time>2013-03-13T14:55:54.000Z</time>
      </trkpt>
      <trkpt lat="44.88812" lon="0.26037">
        <ele>57</ele>
        <time>2013-03-13T14:55:58.000Z</time>
      </trkpt>
      <trkpt lat="44.88813" lon="0.26034">
        <ele>57</ele>
        <time>2013-03-13T14:55:59.000Z</time>
      </trkpt>
      <trkpt lat="44.88814" lon="0.26031">
        <ele>57.200000762939</ele>
        <time>2013-03-13T14:56:00.000Z</time>
      </trkpt>
      <trkpt lat="44.88816" lon="0.26029">
        <ele>57.200000762939</ele>
        <time>2013-03-13T14:56:01.000Z</time>
      </trkpt>
      <trkpt lat="44.88818" lon="0.26026">
        <ele>57.400001525879</ele>
        <time>2013-03-13T14:56:02.000Z</time>
      </trkpt>
      <trkpt lat="44.88831" lon="0.26012">
        <ele>57.799999237061</ele>
        <time>2013-03-13T14:56:08.000Z</time>
      </trkpt>
      <trkpt lat="44.88833" lon="0.26011">
        <ele>57.799999237061</ele>
        <time>2013-03-13T14:56:09.000Z</time>
      </trkpt>
      <trkpt lat="44.88837" lon="0.2601">
        <ele>57.799999237061</ele>
        <time>2013-03-13T14:56:11.000Z</time>
      </trkpt>
      <trkpt lat="44.88831" lon="0.26005">
        <ele>57.799999237061</ele>
        <time>2013-03-13T14:56:30.000Z</time>
      </trkpt>
      <trkpt lat="44.88824" lon="0.26014">
        <ele>57.799999237061</ele>
        <time>2013-03-13T14:56:34.000Z</time>
      </trkpt>
      <trkpt lat="44.88821" lon="0.26016">
        <ele>57.599998474121</ele>
        <time>2013-03-13T14:56:35.000Z</time>
      </trkpt>
      <trkpt lat="44.88818" lon="0.26022">
        <ele>57.400001525879</ele>
        <time>2013-03-13T14:56:37.000Z</time>
      </trkpt>
      <trkpt lat="44.88811" lon="0.26031">
        <ele>57.200000762939</ele>
        <time>2013-03-13T14:56:40.000Z</time>
      </trkpt>
      <trkpt lat="44.88804" lon="0.26043">
        <ele>56.400001525879</ele>
        <time>2013-03-13T14:56:44.000Z</time>
      </trkpt>
      <trkpt lat="44.88803" lon="0.26046">
        <ele>56.400001525879</ele>
        <time>2013-03-13T14:56:45.000Z</time>
      </trkpt>
      <trkpt lat="44.888" lon="0.26067">
        <ele>55.200000762939</ele>
        <time>2013-03-13T14:56:50.000Z</time>
      </trkpt>
      <trkpt lat="44.888" lon="0.26069">
        <ele>55.200000762939</ele>
        <time>2013-03-13T14:56:51.000Z</time>
      </trkpt>
      <trkpt lat="44.88805" lon="0.26081">
        <ele>55</ele>
        <time>2013-03-13T14:56:54.000Z</time>
      </trkpt>
      <trkpt lat="44.88806" lon="0.26085">
        <ele>55</ele>
        <time>2013-03-13T14:56:55.000Z</time>
      </trkpt>
      <trkpt lat="44.88807" lon="0.26095">
        <ele>55.400001525879</ele>
        <time>2013-03-13T14:56:58.000Z</time>
      </trkpt>
      <trkpt lat="44.88807" lon="0.26097">
        <ele>55.400001525879</ele>
        <time>2013-03-13T14:56:59.000Z</time>
      </trkpt>
      <trkpt lat="44.88806" lon="0.26104">
        <ele>55.599998474121</ele>
        <time>2013-03-13T14:57:02.000Z</time>
      </trkpt>
      <trkpt lat="44.88804" lon="0.26107">
        <ele>55.599998474121</ele>
        <time>2013-03-13T14:57:04.000Z</time>
      </trkpt>
      <trkpt lat="44.88801" lon="0.26112">
        <ele>55.599998474121</ele>
        <time>2013-03-13T14:57:07.000Z</time>
      </trkpt>
      <trkpt lat="44.888" lon="0.26117">
        <ele>55.599998474121</ele>
        <time>2013-03-13T14:57:09.000Z</time>
      </trkpt>
      <trkpt lat="44.888" lon="0.2612">
        <ele>55.799999237061</ele>
        <time>2013-03-13T14:57:10.000Z</time>
      </trkpt>
      <trkpt lat="44.888" lon="0.26126">
        <ele>56</ele>
        <time>2013-03-13T14:57:12.000Z</time>
      </trkpt>
      <trkpt lat="44.88798" lon="0.26132">
        <ele>56</ele>
        <time>2013-03-13T14:57:14.000Z</time>
      </trkpt>
      <trkpt lat="44.88797" lon="0.26139">
        <ele>56.200000762939</ele>
        <time>2013-03-13T14:57:17.000Z</time>
      </trkpt>
      <trkpt lat="44.88798" lon="0.26141">
        <ele>56.400001525879</ele>
        <time>2013-03-13T14:57:18.000Z</time>
      </trkpt>
      <trkpt lat="44.88799" lon="0.26143">
        <ele>56.400001525879</ele>
        <time>2013-03-13T14:57:19.000Z</time>
      </trkpt>
      <trkpt lat="44.88806" lon="0.26154">
        <ele>57.200000762939</ele>
        <time>2013-03-13T14:57:24.000Z</time>
      </trkpt>
      <trkpt lat="44.8881" lon="0.26161">
        <ele>57.599998474121</ele>
        <time>2013-03-13T14:57:27.000Z</time>
      </trkpt>
      <trkpt lat="44.88816" lon="0.26173">
        <ele>58.799999237061</ele>
        <time>2013-03-13T14:57:32.000Z</time>
      </trkpt>
      <trkpt lat="44.8882" lon="0.2618">
        <ele>60</ele>
        <time>2013-03-13T14:57:35.000Z</time>
      </trkpt>
      <trkpt lat="44.8882" lon="0.26183">
        <ele>60.400001525879</ele>
        <time>2013-03-13T14:57:36.000Z</time>
      </trkpt>
      <trkpt lat="44.88826" lon="0.26202">
        <ele>63.200000762939</ele>
        <time>2013-03-13T14:57:42.000Z</time>
      </trkpt>
      <trkpt lat="44.88827" lon="0.26208">
        <ele>64</ele>
        <time>2013-03-13T14:57:44.000Z</time>
      </trkpt>
      <trkpt lat="44.88829" lon="0.26218">
        <ele>65.400001525879</ele>
        <time>2013-03-13T14:57:47.000Z</time>
      </trkpt>
      <trkpt lat="44.88833" lon="0.26232">
        <ele>67.400001525879</ele>
        <time>2013-03-13T14:57:51.000Z</time>
      </trkpt>
      <trkpt lat="44.88839" lon="0.26248">
        <ele>70</ele>
        <time>2013-03-13T14:57:56.000Z</time>
      </trkpt>
      <trkpt lat="44.88842" lon="0.26257">
        <ele>71.400001525879</ele>
        <time>2013-03-13T14:57:59.000Z</time>
      </trkpt>
      <trkpt lat="44.88846" lon="0.26265">
        <ele>72.800003051758</ele>
        <time>2013-03-13T14:58:02.000Z</time>
      </trkpt>
      <trkpt lat="44.88851" lon="0.26281">
        <ele>75</ele>
        <time>2013-03-13T14:58:07.000Z</time>
      </trkpt>
      <trkpt lat="44.88852" lon="0.26284">
        <ele>75.400001525879</ele>
        <time>2013-03-13T14:58:08.000Z</time>
      </trkpt>
      <trkpt lat="44.88856" lon="0.263">
        <ele>77.400001525879</ele>
        <time>2013-03-13T14:58:13.000Z</time>
      </trkpt>
      <trkpt lat="44.88857" lon="0.26306">
        <ele>78.199996948242</ele>
        <time>2013-03-13T14:58:15.000Z</time>
      </trkpt>
      <trkpt lat="44.88856" lon="0.26318">
        <ele>79.800003051758</ele>
        <time>2013-03-13T14:58:19.000Z</time>
      </trkpt>
      <trkpt lat="44.88856" lon="0.26332">
        <ele>81.400001525879</ele>
        <time>2013-03-13T14:58:25.000Z</time>
      </trkpt>
      <trkpt lat="44.88856" lon="0.26334">
        <ele>81.599998474121</ele>
        <time>2013-03-13T14:58:26.000Z</time>
      </trkpt>
      <trkpt lat="44.88856" lon="0.26344">
        <ele>82.800003051758</ele>
        <time>2013-03-13T14:58:30.000Z</time>
      </trkpt>
      <trkpt lat="44.88858" lon="0.26357">
        <ele>84</ele>
        <time>2013-03-13T14:58:35.000Z</time>
      </trkpt>
      <trkpt lat="44.88859" lon="0.26359">
        <ele>84.199996948242</ele>
        <time>2013-03-13T14:58:36.000Z</time>
      </trkpt>
      <trkpt lat="44.88864" lon="0.26366">
        <ele>84.800003051758</ele>
        <time>2013-03-13T14:58:39.000Z</time>
      </trkpt>
      <trkpt lat="44.88868" lon="0.26367">
        <ele>85</ele>
        <time>2013-03-13T14:58:41.000Z</time>
      </trkpt>
      <trkpt lat="44.88877" lon="0.26363">
        <ele>84.400001525879</ele>
        <time>2013-03-13T14:58:45.000Z</time>
      </trkpt>
      <trkpt lat="44.88879" lon="0.26361">
        <ele>84.199996948242</ele>
        <time>2013-03-13T14:58:46.000Z</time>
      </trkpt>
      <trkpt lat="44.8889" lon="0.2635">
        <ele>83</ele>
        <time>2013-03-13T14:58:52.000Z</time>
      </trkpt>
      <trkpt lat="44.88894" lon="0.26348">
        <ele>82.599998474121</ele>
        <time>2013-03-13T14:58:54.000Z</time>
      </trkpt>
      <trkpt lat="44.88898" lon="0.26345">
        <ele>82.400001525879</ele>
        <time>2013-03-13T14:58:56.000Z</time>
      </trkpt>
      <trkpt lat="44.88908" lon="0.26343">
        <ele>82</ele>
        <time>2013-03-13T14:59:01.000Z</time>
      </trkpt>
      <trkpt lat="44.88912" lon="0.26344">
        <ele>82.199996948242</ele>
        <time>2013-03-13T14:59:03.000Z</time>
      </trkpt>
      <trkpt lat="44.88922" lon="0.2635">
        <ele>83.599998474121</ele>
        <time>2013-03-13T14:59:08.000Z</time>
      </trkpt>
      <trkpt lat="44.8893" lon="0.26356">
        <ele>85.599998474121</ele>
        <time>2013-03-13T14:59:13.000Z</time>
      </trkpt>
      <trkpt lat="44.88932" lon="0.26357">
        <ele>86</ele>
        <time>2013-03-13T14:59:14.000Z</time>
      </trkpt>
      <trkpt lat="44.88943" lon="0.26362">
        <ele>88</ele>
        <time>2013-03-13T14:59:19.000Z</time>
      </trkpt>
      <trkpt lat="44.88948" lon="0.26365">
        <ele>89</ele>
        <time>2013-03-13T14:59:22.000Z</time>
      </trkpt>
      <trkpt lat="44.88956" lon="0.26367">
        <ele>90.400001525879</ele>
        <time>2013-03-13T14:59:26.000Z</time>
      </trkpt>
      <trkpt lat="44.88966" lon="0.26372">
        <ele>92.199996948242</ele>
        <time>2013-03-13T14:59:31.000Z</time>
      </trkpt>
      <trkpt lat="44.8897" lon="0.26374">
        <ele>93</ele>
        <time>2013-03-13T14:59:33.000Z</time>
      </trkpt>
      <trkpt lat="44.8898" lon="0.26381">
        <ele>94.800003051758</ele>
        <time>2013-03-13T14:59:39.000Z</time>
      </trkpt>
      <trkpt lat="44.88982" lon="0.26383">
        <ele>95.199996948242</ele>
        <time>2013-03-13T14:59:41.000Z</time>
      </trkpt>
      <trkpt lat="44.8899" lon="0.26388">
        <ele>96.599998474121</ele>
        <time>2013-03-13T14:59:46.000Z</time>
      </trkpt>
      <trkpt lat="44.88999" lon="0.26394">
        <ele>98</ele>
        <time>2013-03-13T14:59:52.000Z</time>
      </trkpt>
      <trkpt lat="44.89" lon="0.26395">
        <ele>98.199996948242</ele>
        <time>2013-03-13T14:59:53.000Z</time>
      </trkpt>
      <trkpt lat="44.89009" lon="0.26399">
        <ele>99</ele>
        <time>2013-03-13T14:59:58.000Z</time>
      </trkpt>
      <trkpt lat="44.89022" lon="0.26388">
        <ele>99.599998474121</ele>
        <time>2013-03-13T15:02:10.000Z</time>
      </trkpt>
      <trkpt lat="44.89024" lon="0.26388">
        <ele>99.800003051758</ele>
        <time>2013-03-13T15:02:11.000Z</time>
      </trkpt>
      <trkpt lat="44.8904" lon="0.26397">
        <ele>101.19999694824</ele>
        <time>2013-03-13T15:02:16.000Z</time>
      </trkpt>
      <trkpt lat="44.89053" lon="0.26396">
        <ele>102.19999694824</ele>
        <time>2013-03-13T15:02:19.000Z</time>
      </trkpt>
      <trkpt lat="44.89058" lon="0.26396">
        <ele>102.40000152588</ele>
        <time>2013-03-13T15:02:20.000Z</time>
      </trkpt>
      <trkpt lat="44.89076" lon="0.26399">
        <ele>103.80000305176</ele>
        <time>2013-03-13T15:02:24.000Z</time>
      </trkpt>
      <trkpt lat="44.89081" lon="0.26401">
        <ele>104.19999694824</ele>
        <time>2013-03-13T15:02:25.000Z</time>
      </trkpt>
      <trkpt lat="44.89095" lon="0.26407">
        <ele>103.80000305176</ele>
        <time>2013-03-13T15:02:28.000Z</time>
      </trkpt>
      <trkpt lat="44.89104" lon="0.26412">
        <ele>103.40000152588</ele>
        <time>2013-03-13T15:02:30.000Z</time>
      </trkpt>
      <trkpt lat="44.89108" lon="0.26414">
        <ele>103.19999694824</ele>
        <time>2013-03-13T15:02:31.000Z</time>
      </trkpt>
      <trkpt lat="44.89112" lon="0.26415">
        <ele>103</ele>
        <time>2013-03-13T15:02:32.000Z</time>
      </trkpt>
      <trkpt lat="44.8912" lon="0.26419">
        <ele>102.59999847412</ele>
        <time>2013-03-13T15:02:34.000Z</time>
      </trkpt>
      <trkpt lat="44.89129" lon="0.26423">
        <ele>102.19999694824</ele>
        <time>2013-03-13T15:02:36.000Z</time>
      </trkpt>
      <trkpt lat="44.89134" lon="0.26425">
        <ele>102</ele>
        <time>2013-03-13T15:02:37.000Z</time>
      </trkpt>
      <trkpt lat="44.89142" lon="0.2643">
        <ele>101.40000152588</ele>
        <time>2013-03-13T15:02:39.000Z</time>
      </trkpt>
      <trkpt lat="44.89146" lon="0.26433">
        <ele>101.19999694824</ele>
        <time>2013-03-13T15:02:40.000Z</time>
      </trkpt>
      <trkpt lat="44.89153" lon="0.26437">
        <ele>100.80000305176</ele>
        <time>2013-03-13T15:02:42.000Z</time>
      </trkpt>
      <trkpt lat="44.89156" lon="0.26439">
        <ele>100.59999847412</ele>
        <time>2013-03-13T15:02:43.000Z</time>
      </trkpt>
      <trkpt lat="44.8916" lon="0.2644">
        <ele>100.40000152588</ele>
        <time>2013-03-13T15:02:44.000Z</time>
      </trkpt>
      <trkpt lat="44.89164" lon="0.26441">
        <ele>100.19999694824</ele>
        <time>2013-03-13T15:02:45.000Z</time>
      </trkpt>
      <trkpt lat="44.89172" lon="0.26443">
        <ele>99.599998474121</ele>
        <time>2013-03-13T15:02:47.000Z</time>
      </trkpt>
      <trkpt lat="44.89182" lon="0.26445">
        <ele>98.599998474121</ele>
        <time>2013-03-13T15:02:49.000Z</time>
      </trkpt>
      <trkpt lat="44.89191" lon="0.26447">
        <ele>97.800003051758</ele>
        <time>2013-03-13T15:02:51.000Z</time>
      </trkpt>
      <trkpt lat="44.892" lon="0.26449">
        <ele>96.800003051758</ele>
        <time>2013-03-13T15:02:53.000Z</time>
      </trkpt>
      <trkpt lat="44.89205" lon="0.2645">
        <ele>96.400001525879</ele>
        <time>2013-03-13T15:02:54.000Z</time>
      </trkpt>
      <trkpt lat="44.89209" lon="0.26451">
        <ele>96</ele>
        <time>2013-03-13T15:02:55.000Z</time>
      </trkpt>
      <trkpt lat="44.89226" lon="0.26454">
        <ele>94.599998474121</ele>
        <time>2013-03-13T15:02:59.000Z</time>
      </trkpt>
      <trkpt lat="44.89231" lon="0.26455">
        <ele>94.199996948242</ele>
        <time>2013-03-13T15:03:00.000Z</time>
      </trkpt>
      <trkpt lat="44.89235" lon="0.26457">
        <ele>93.800003051758</ele>
        <time>2013-03-13T15:03:01.000Z</time>
      </trkpt>
      <trkpt lat="44.89244" lon="0.2646">
        <ele>92.800003051758</ele>
        <time>2013-03-13T15:03:03.000Z</time>
      </trkpt>
      <trkpt lat="44.89248" lon="0.26462">
        <ele>92.400001525879</ele>
        <time>2013-03-13T15:03:04.000Z</time>
      </trkpt>
      <trkpt lat="44.89252" lon="0.26463">
        <ele>92.199996948242</ele>
        <time>2013-03-13T15:03:05.000Z</time>
      </trkpt>
      <trkpt lat="44.89261" lon="0.26463">
        <ele>91.800003051758</ele>
        <time>2013-03-13T15:03:07.000Z</time>
      </trkpt>
      <trkpt lat="44.89269" lon="0.26462">
        <ele>91.400001525879</ele>
        <time>2013-03-13T15:03:09.000Z</time>
      </trkpt>
      <trkpt lat="44.89273" lon="0.26463">
        <ele>91.400001525879</ele>
        <time>2013-03-13T15:03:10.000Z</time>
      </trkpt>
      <trkpt lat="44.89277" lon="0.26463">
        <ele>91.199996948242</ele>
        <time>2013-03-13T15:03:11.000Z</time>
      </trkpt>
      <trkpt lat="44.8928" lon="0.26465">
        <ele>91</ele>
        <time>2013-03-13T15:03:12.000Z</time>
      </trkpt>
      <trkpt lat="44.89287" lon="0.26471">
        <ele>90.599998474121</ele>
        <time>2013-03-13T15:03:14.000Z</time>
      </trkpt>
      <trkpt lat="44.89289" lon="0.26475">
        <ele>90.400001525879</ele>
        <time>2013-03-13T15:03:15.000Z</time>
      </trkpt>
      <trkpt lat="44.89293" lon="0.26478">
        <ele>90.199996948242</ele>
        <time>2013-03-13T15:03:16.000Z</time>
      </trkpt>
      <trkpt lat="44.89303" lon="0.26485">
        <ele>89.800003051758</ele>
        <time>2013-03-13T15:03:19.000Z</time>
      </trkpt>
      <trkpt lat="44.89307" lon="0.26488">
        <ele>89.599998474121</ele>
        <time>2013-03-13T15:03:20.000Z</time>
      </trkpt>
      <trkpt lat="44.8932" lon="0.265">
        <ele>89.199996948242</ele>
        <time>2013-03-13T15:03:24.000Z</time>
      </trkpt>
      <trkpt lat="44.89329" lon="0.26519">
        <ele>88.400001525879</ele>
        <time>2013-03-13T15:03:28.000Z</time>
      </trkpt>
      <trkpt lat="44.89331" lon="0.26523">
        <ele>88.199996948242</ele>
        <time>2013-03-13T15:03:29.000Z</time>
      </trkpt>
      <trkpt lat="44.89338" lon="0.26535">
        <ele>87.599998474121</ele>
        <time>2013-03-13T15:03:32.000Z</time>
      </trkpt>
      <trkpt lat="44.89343" lon="0.26544">
        <ele>87.400001525879</ele>
        <time>2013-03-13T15:03:34.000Z</time>
      </trkpt>
      <trkpt lat="44.89347" lon="0.26553">
        <ele>87.199996948242</ele>
        <time>2013-03-13T15:03:36.000Z</time>
      </trkpt>
      <trkpt lat="44.89352" lon="0.26566">
        <ele>86.800003051758</ele>
        <time>2013-03-13T15:03:39.000Z</time>
      </trkpt>
      <trkpt lat="44.89353" lon="0.26571">
        <ele>86.800003051758</ele>
        <time>2013-03-13T15:03:40.000Z</time>
      </trkpt>
      <trkpt lat="44.89356" lon="0.26594">
        <ele>86.199996948242</ele>
        <time>2013-03-13T15:03:44.000Z</time>
      </trkpt>
      <trkpt lat="44.89352" lon="0.26615">
        <ele>85.599998474121</ele>
        <time>2013-03-13T15:03:48.000Z</time>
      </trkpt>
      <trkpt lat="44.89349" lon="0.2662">
        <ele>85.400001525879</ele>
        <time>2013-03-13T15:03:49.000Z</time>
      </trkpt>
      <trkpt lat="44.8934" lon="0.26645">
        <ele>84.599998474121</ele>
        <time>2013-03-13T15:03:54.000Z</time>
      </trkpt>
      <trkpt lat="44.89332" lon="0.26657">
        <ele>84.199996948242</ele>
        <time>2013-03-13T15:03:58.000Z</time>
      </trkpt>
      <trkpt lat="44.89328" lon="0.26664">
        <ele>84.199996948242</ele>
        <time>2013-03-13T15:04:00.000Z</time>
      </trkpt>
      <trkpt lat="44.89325" lon="0.26674">
        <ele>84</ele>
        <time>2013-03-13T15:04:02.000Z</time>
      </trkpt>
      <trkpt lat="44.89323" lon="0.26692">
        <ele>83.599998474121</ele>
        <time>2013-03-13T15:04:05.000Z</time>
      </trkpt>
      <trkpt lat="44.89322" lon="0.26698">
        <ele>83.599998474121</ele>
        <time>2013-03-13T15:04:06.000Z</time>
      </trkpt>
      <trkpt lat="44.89319" lon="0.2671">
        <ele>83.199996948242</ele>
        <time>2013-03-13T15:04:08.000Z</time>
      </trkpt>
      <trkpt lat="44.89316" lon="0.26721">
        <ele>83</ele>
        <time>2013-03-13T15:04:10.000Z</time>
      </trkpt>
      <trkpt lat="44.89312" lon="0.26736">
        <ele>82.599998474121</ele>
        <time>2013-03-13T15:04:13.000Z</time>
      </trkpt>
      <trkpt lat="44.89312" lon="0.2674">
        <ele>82.400001525879</ele>
        <time>2013-03-13T15:04:14.000Z</time>
      </trkpt>
      <trkpt lat="44.89316" lon="0.26746">
        <ele>82.199996948242</ele>
        <time>2013-03-13T15:04:17.000Z</time>
      </trkpt>
      <trkpt lat="44.89318" lon="0.26745">
        <ele>82.199996948242</ele>
        <time>2013-03-13T15:04:18.000Z</time>
      </trkpt>
      <trkpt lat="44.89319" lon="0.26745">
        <ele>82.199996948242</ele>
        <time>2013-03-13T15:04:19.000Z</time>
      </trkpt>
      <trkpt lat="44.89321" lon="0.26746">
        <ele>82.199996948242</ele>
        <time>2013-03-13T15:04:20.000Z</time>
      </trkpt>
      <trkpt lat="44.89324" lon="0.26752">
        <ele>82</ele>
        <time>2013-03-13T15:04:22.000Z</time>
      </trkpt>
      <trkpt lat="44.89328" lon="0.26764">
        <ele>81.599998474121</ele>
        <time>2013-03-13T15:04:25.000Z</time>
      </trkpt>
      <trkpt lat="44.8933" lon="0.26774">
        <ele>81.400001525879</ele>
        <time>2013-03-13T15:04:27.000Z</time>
      </trkpt>
      <trkpt lat="44.8933" lon="0.26792">
        <ele>80.800003051758</ele>
        <time>2013-03-13T15:04:30.000Z</time>
      </trkpt>
      <trkpt lat="44.8933" lon="0.26798">
        <ele>80.800003051758</ele>
        <time>2013-03-13T15:04:31.000Z</time>
      </trkpt>
      <trkpt lat="44.89331" lon="0.2682">
        <ele>80.199996948242</ele>
        <time>2013-03-13T15:04:35.000Z</time>
      </trkpt>
      <trkpt lat="44.89332" lon="0.2683">
        <ele>80</ele>
        <time>2013-03-13T15:04:37.000Z</time>
      </trkpt>
      <trkpt lat="44.89331" lon="0.26836">
        <ele>79.800003051758</ele>
        <time>2013-03-13T15:04:38.000Z</time>
      </trkpt>
      <trkpt lat="44.89332" lon="0.26847">
        <ele>79.800003051758</ele>
        <time>2013-03-13T15:04:40.000Z</time>
      </trkpt>
      <trkpt lat="44.89332" lon="0.26853">
        <ele>79.599998474121</ele>
        <time>2013-03-13T15:04:41.000Z</time>
      </trkpt>
      <trkpt lat="44.89334" lon="0.26872">
        <ele>79.400001525879</ele>
        <time>2013-03-13T15:04:45.000Z</time>
      </trkpt>
      <trkpt lat="44.89333" lon="0.26877">
        <ele>79.400001525879</ele>
        <time>2013-03-13T15:04:46.000Z</time>
      </trkpt>
      <trkpt lat="44.89333" lon="0.26893">
        <ele>79.199996948242</ele>
        <time>2013-03-13T15:04:50.000Z</time>
      </trkpt>
      <trkpt lat="44.89336" lon="0.26903">
        <ele>79.199996948242</ele>
        <time>2013-03-13T15:04:52.000Z</time>
      </trkpt>
      <trkpt lat="44.89339" lon="0.26919">
        <ele>79</ele>
        <time>2013-03-13T15:04:55.000Z</time>
      </trkpt>
      <trkpt lat="44.89339" lon="0.2693">
        <ele>78.599998474121</ele>
        <time>2013-03-13T15:04:57.000Z</time>
      </trkpt>
      <trkpt lat="44.8934" lon="0.2694">
        <ele>78.400001525879</ele>
        <time>2013-03-13T15:04:59.000Z</time>
      </trkpt>
      <trkpt lat="44.89341" lon="0.26956">
        <ele>77.800003051758</ele>
        <time>2013-03-13T15:05:02.000Z</time>
      </trkpt>
      <trkpt lat="44.89341" lon="0.26966">
        <ele>77.400001525879</ele>
        <time>2013-03-13T15:05:04.000Z</time>
      </trkpt>
      <trkpt lat="44.89346" lon="0.26983">
        <ele>76.800003051758</ele>
        <time>2013-03-13T15:05:07.000Z</time>
      </trkpt>
      <trkpt lat="44.8935" lon="0.26993">
        <ele>76.599998474121</ele>
        <time>2013-03-13T15:05:09.000Z</time>
      </trkpt>
      <trkpt lat="44.8936" lon="0.27005">
        <ele>76.400001525879</ele>
        <time>2013-03-13T15:05:13.000Z</time>
      </trkpt>
      <trkpt lat="44.89367" lon="0.27013">
        <ele>76.400001525879</ele>
        <time>2013-03-13T15:05:16.000Z</time>
      </trkpt>
      <trkpt lat="44.89367" lon="0.27018">
        <ele>76.199996948242</ele>
        <time>2013-03-13T15:05:17.000Z</time>
      </trkpt>
      <trkpt lat="44.89369" lon="0.27029">
        <ele>76</ele>
        <time>2013-03-13T15:05:19.000Z</time>
      </trkpt>
      <trkpt lat="44.89372" lon="0.27037">
        <ele>75.800003051758</ele>
        <time>2013-03-13T15:05:21.000Z</time>
      </trkpt>
      <trkpt lat="44.89377" lon="0.27043">
        <ele>75.599998474121</ele>
        <time>2013-03-13T15:05:25.000Z</time>
      </trkpt>
      <trkpt lat="44.89384" lon="0.27047">
        <ele>75.599998474121</ele>
        <time>2013-03-13T15:05:28.000Z</time>
      </trkpt>
      <trkpt lat="44.89387" lon="0.27049">
        <ele>75.599998474121</ele>
        <time>2013-03-13T15:05:30.000Z</time>
      </trkpt>
      <trkpt lat="44.89395" lon="0.27055">
        <ele>75.599998474121</ele>
        <time>2013-03-13T15:05:34.000Z</time>
      </trkpt>
      <trkpt lat="44.89398" lon="0.2706">
        <ele>75.400001525879</ele>
        <time>2013-03-13T15:05:38.000Z</time>
      </trkpt>
      <trkpt lat="44.89402" lon="0.27074">
        <ele>75</ele>
        <time>2013-03-13T15:05:42.000Z</time>
      </trkpt>
      <trkpt lat="44.89404" lon="0.27079">
        <ele>75</ele>
        <time>2013-03-13T15:05:43.000Z</time>
      </trkpt>
      <trkpt lat="44.89406" lon="0.27083">
        <ele>74.800003051758</ele>
        <time>2013-03-13T15:05:44.000Z</time>
      </trkpt>
      <trkpt lat="44.89408" lon="0.27095">
        <ele>74.599998474121</ele>
        <time>2013-03-13T15:05:47.000Z</time>
      </trkpt>
      <trkpt lat="44.89408" lon="0.27103">
        <ele>74.400001525879</ele>
        <time>2013-03-13T15:05:49.000Z</time>
      </trkpt>
      <trkpt lat="44.89406" lon="0.27107">
        <ele>74.400001525879</ele>
        <time>2013-03-13T15:05:50.000Z</time>
      </trkpt>
      <trkpt lat="44.89405" lon="0.27111">
        <ele>74.199996948242</ele>
        <time>2013-03-13T15:05:51.000Z</time>
      </trkpt>
      <trkpt lat="44.89408" lon="0.27127">
        <ele>74</ele>
        <time>2013-03-13T15:05:55.000Z</time>
      </trkpt>
      <trkpt lat="44.89413" lon="0.27129">
        <ele>73.800003051758</ele>
        <time>2013-03-13T15:05:57.000Z</time>
      </trkpt>
      <trkpt lat="44.89418" lon="0.2713">
        <ele>73.800003051758</ele>
        <time>2013-03-13T15:05:59.000Z</time>
      </trkpt>
      <trkpt lat="44.89421" lon="0.27131">
        <ele>74</ele>
        <time>2013-03-13T15:06:00.000Z</time>
      </trkpt>
      <trkpt lat="44.89431" lon="0.27135">
        <ele>74.199996948242</ele>
        <time>2013-03-13T15:06:03.000Z</time>
      </trkpt>
      <trkpt lat="44.89433" lon="0.27137">
        <ele>74.199996948242</ele>
        <time>2013-03-13T15:06:04.000Z</time>
      </trkpt>
      <trkpt lat="44.89435" lon="0.2714">
        <ele>74.199996948242</ele>
        <time>2013-03-13T15:06:05.000Z</time>
      </trkpt>
      <trkpt lat="44.89438" lon="0.27146">
        <ele>74.199996948242</ele>
        <time>2013-03-13T15:06:07.000Z</time>
      </trkpt>
      <trkpt lat="44.89446" lon="0.27151">
        <ele>74.199996948242</ele>
        <time>2013-03-13T15:06:10.000Z</time>
      </trkpt>
      <trkpt lat="44.89448" lon="0.27153">
        <ele>74.199996948242</ele>
        <time>2013-03-13T15:06:11.000Z</time>
      </trkpt>
      <trkpt lat="44.89462" lon="0.27166">
        <ele>74</ele>
        <time>2013-03-13T15:06:16.000Z</time>
      </trkpt>
      <trkpt lat="44.89471" lon="0.2718">
        <ele>73.199996948242</ele>
        <time>2013-03-13T15:06:21.000Z</time>
      </trkpt>
      <trkpt lat="44.89476" lon="0.27185">
        <ele>73</ele>
        <time>2013-03-13T15:06:23.000Z</time>
      </trkpt>
      <trkpt lat="44.89484" lon="0.27194">
        <ele>72.599998474121</ele>
        <time>2013-03-13T15:06:26.000Z</time>
      </trkpt>
      <trkpt lat="44.89488" lon="0.27207">
        <ele>71.599998474121</ele>
        <time>2013-03-13T15:06:29.000Z</time>
      </trkpt>
      <trkpt lat="44.89489" lon="0.27212">
        <ele>71.400001525879</ele>
        <time>2013-03-13T15:06:30.000Z</time>
      </trkpt>
      <trkpt lat="44.89494" lon="0.27232">
        <ele>70</ele>
        <time>2013-03-13T15:06:34.000Z</time>
      </trkpt>
      <trkpt lat="44.89496" lon="0.27237">
        <ele>69.800003051758</ele>
        <time>2013-03-13T15:06:35.000Z</time>
      </trkpt>
      <trkpt lat="44.89502" lon="0.2726">
        <ele>69</ele>
        <time>2013-03-13T15:06:40.000Z</time>
      </trkpt>
      <trkpt lat="44.89503" lon="0.27265">
        <ele>69.199996948242</ele>
        <time>2013-03-13T15:06:41.000Z</time>
      </trkpt>
      <trkpt lat="44.89511" lon="0.27282">
        <ele>69.800003051758</ele>
        <time>2013-03-13T15:06:45.000Z</time>
      </trkpt>
      <trkpt lat="44.89513" lon="0.27286">
        <ele>70</ele>
        <time>2013-03-13T15:06:46.000Z</time>
      </trkpt>
      <trkpt lat="44.89526" lon="0.27303">
        <ele>70.800003051758</ele>
        <time>2013-03-13T15:06:51.000Z</time>
      </trkpt>
      <trkpt lat="44.8954" lon="0.27321">
        <ele>71.800003051758</ele>
        <time>2013-03-13T15:06:56.000Z</time>
      </trkpt>
      <trkpt lat="44.89544" lon="0.27324">
        <ele>72.199996948242</ele>
        <time>2013-03-13T15:06:57.000Z</time>
      </trkpt>
      <trkpt lat="44.89555" lon="0.27337">
        <ele>73</ele>
        <time>2013-03-13T15:07:01.000Z</time>
      </trkpt>
      <trkpt lat="44.89561" lon="0.27344">
        <ele>73.400001525879</ele>
        <time>2013-03-13T15:07:03.000Z</time>
      </trkpt>
      <trkpt lat="44.8957" lon="0.27357">
        <ele>74.400001525879</ele>
        <time>2013-03-13T15:07:06.000Z</time>
      </trkpt>
      <trkpt lat="44.89582" lon="0.27369">
        <ele>75.599998474121</ele>
        <time>2013-03-13T15:07:10.000Z</time>
      </trkpt>
      <trkpt lat="44.89585" lon="0.27372">
        <ele>76</ele>
        <time>2013-03-13T15:07:11.000Z</time>
      </trkpt>
      <trkpt lat="44.89598" lon="0.27377">
        <ele>76.800003051758</ele>
        <time>2013-03-13T15:07:15.000Z</time>
      </trkpt>
      <trkpt lat="44.89606" lon="0.27379">
        <ele>77.199996948242</ele>
        <time>2013-03-13T15:07:17.000Z</time>
      </trkpt>
      <trkpt lat="44.89619" lon="0.27375">
        <ele>77.800003051758</ele>
        <time>2013-03-13T15:07:21.000Z</time>
      </trkpt>
      <trkpt lat="44.89625" lon="0.27372">
        <ele>78.199996948242</ele>
        <time>2013-03-13T15:07:23.000Z</time>
      </trkpt>
      <trkpt lat="44.89638" lon="0.27365">
        <ele>78.800003051758</ele>
        <time>2013-03-13T15:07:27.000Z</time>
      </trkpt>
      <trkpt lat="44.89644" lon="0.27362">
        <ele>79.199996948242</ele>
        <time>2013-03-13T15:07:29.000Z</time>
      </trkpt>
      <trkpt lat="44.89657" lon="0.27356">
        <ele>80</ele>
        <time>2013-03-13T15:07:33.000Z</time>
      </trkpt>
      <trkpt lat="44.89664" lon="0.27354">
        <ele>80.400001525879</ele>
        <time>2013-03-13T15:07:35.000Z</time>
      </trkpt>
      <trkpt lat="44.89673" lon="0.27353">
        <ele>81</ele>
        <time>2013-03-13T15:07:38.000Z</time>
      </trkpt>
      <trkpt lat="44.89683" lon="0.27354">
        <ele>81.400001525879</ele>
        <time>2013-03-13T15:07:41.000Z</time>
      </trkpt>
      <trkpt lat="44.8969" lon="0.27355">
        <ele>81.599998474121</ele>
        <time>2013-03-13T15:07:43.000Z</time>
      </trkpt>
      <trkpt lat="44.897" lon="0.27357">
        <ele>82.199996948242</ele>
        <time>2013-03-13T15:07:46.000Z</time>
      </trkpt>
      <trkpt lat="44.89707" lon="0.27362">
        <ele>82.400001525879</ele>
        <time>2013-03-13T15:07:48.000Z</time>
      </trkpt>
      <trkpt lat="44.89715" lon="0.27372">
        <ele>82.599998474121</ele>
        <time>2013-03-13T15:07:51.000Z</time>
      </trkpt>
      <trkpt lat="44.89717" lon="0.27376">
        <ele>82.599998474121</ele>
        <time>2013-03-13T15:07:52.000Z</time>
      </trkpt>
      <trkpt lat="44.89726" lon="0.27381">
        <ele>82.800003051758</ele>
        <time>2013-03-13T15:07:55.000Z</time>
      </trkpt>
      <trkpt lat="44.89729" lon="0.27381">
        <ele>82.800003051758</ele>
        <time>2013-03-13T15:07:56.000Z</time>
      </trkpt>
      <trkpt lat="44.89732" lon="0.27381">
        <ele>83</ele>
        <time>2013-03-13T15:07:57.000Z</time>
      </trkpt>
      <trkpt lat="44.8974" lon="0.27383">
        <ele>83.199996948242</ele>
        <time>2013-03-13T15:07:59.000Z</time>
      </trkpt>
      <trkpt lat="44.89746" lon="0.27387">
        <ele>83.400001525879</ele>
        <time>2013-03-13T15:08:01.000Z</time>
      </trkpt>
      <trkpt lat="44.89752" lon="0.27387">
        <ele>83.400001525879</ele>
        <time>2013-03-13T15:08:03.000Z</time>
      </trkpt>
      <trkpt lat="44.89759" lon="0.27387">
        <ele>83</ele>
        <time>2013-03-13T15:08:05.000Z</time>
      </trkpt>
      <trkpt lat="44.8977" lon="0.27386">
        <ele>82.400001525879</ele>
        <time>2013-03-13T15:08:08.000Z</time>
      </trkpt>
      <trkpt lat="44.89779" lon="0.27386">
        <ele>81.800003051758</ele>
        <time>2013-03-13T15:08:10.000Z</time>
      </trkpt>
      <trkpt lat="44.89788" lon="0.27387">
        <ele>81.400001525879</ele>
        <time>2013-03-13T15:08:12.000Z</time>
      </trkpt>
      <trkpt lat="44.89796" lon="0.27387">
        <ele>80.800003051758</ele>
        <time>2013-03-13T15:08:14.000Z</time>
      </trkpt>
      <trkpt lat="44.89808" lon="0.27389">
        <ele>80</ele>
        <time>2013-03-13T15:08:17.000Z</time>
      </trkpt>
      <trkpt lat="44.89816" lon="0.27391">
        <ele>79.599998474121</ele>
        <time>2013-03-13T15:08:19.000Z</time>
      </trkpt>
      <trkpt lat="44.8982" lon="0.27393">
        <ele>79.199996948242</ele>
        <time>2013-03-13T15:08:20.000Z</time>
      </trkpt>
      <trkpt lat="44.89824" lon="0.27393">
        <ele>79</ele>
        <time>2013-03-13T15:08:21.000Z</time>
      </trkpt>
      <trkpt lat="44.89828" lon="0.27392">
        <ele>78.800003051758</ele>
        <time>2013-03-13T15:08:22.000Z</time>
      </trkpt>
      <trkpt lat="44.89836" lon="0.27391">
        <ele>78.199996948242</ele>
        <time>2013-03-13T15:08:24.000Z</time>
      </trkpt>
      <trkpt lat="44.8984" lon="0.2739">
        <ele>78</ele>
        <time>2013-03-13T15:08:25.000Z</time>
      </trkpt>
      <trkpt lat="44.89849" lon="0.27389">
        <ele>77.199996948242</ele>
        <time>2013-03-13T15:08:27.000Z</time>
      </trkpt>
      <trkpt lat="44.89853" lon="0.27389">
        <ele>76.800003051758</ele>
        <time>2013-03-13T15:08:28.000Z</time>
      </trkpt>
      <trkpt lat="44.89867" lon="0.27385">
        <ele>75.800003051758</ele>
        <time>2013-03-13T15:08:32.000Z</time>
      </trkpt>
      <trkpt lat="44.89882" lon="0.27376">
        <ele>74.599998474121</ele>
        <time>2013-03-13T15:08:36.000Z</time>
      </trkpt>
      <trkpt lat="44.89885" lon="0.27374">
        <ele>74.199996948242</ele>
        <time>2013-03-13T15:08:37.000Z</time>
      </trkpt>
      <trkpt lat="44.89887" lon="0.27368">
        <ele>74</ele>
        <time>2013-03-13T15:08:39.000Z</time>
      </trkpt>
      <trkpt lat="44.89888" lon="0.27365">
        <ele>74</ele>
        <time>2013-03-13T15:08:40.000Z</time>
      </trkpt>
      <trkpt lat="44.89889" lon="0.2736">
        <ele>73.800003051758</ele>
        <time>2013-03-13T15:08:42.000Z</time>
      </trkpt>
      <trkpt lat="44.89891" lon="0.27356">
        <ele>73.599998474121</ele>
        <time>2013-03-13T15:08:44.000Z</time>
      </trkpt>
      <trkpt lat="44.89891" lon="0.27353">
        <ele>73.599998474121</ele>
        <time>2013-03-13T15:08:45.000Z</time>
      </trkpt>
      <trkpt lat="44.89891" lon="0.27346">
        <ele>73.599998474121</ele>
        <time>2013-03-13T15:08:47.000Z</time>
      </trkpt>
      <trkpt lat="44.89891" lon="0.27331">
        <ele>73.599998474121</ele>
        <time>2013-03-13T15:08:51.000Z</time>
      </trkpt>
      <trkpt lat="44.8989" lon="0.27319">
        <ele>74</ele>
        <time>2013-03-13T15:08:54.000Z</time>
      </trkpt>
      <trkpt lat="44.89888" lon="0.27303">
        <ele>74.199996948242</ele>
        <time>2013-03-13T15:08:58.000Z</time>
      </trkpt>
      <trkpt lat="44.89887" lon="0.27292">
        <ele>74.400001525879</ele>
        <time>2013-03-13T15:09:01.000Z</time>
      </trkpt>
      <trkpt lat="44.89887" lon="0.27279">
        <ele>74.599998474121</ele>
        <time>2013-03-13T15:09:04.000Z</time>
      </trkpt>
      <trkpt lat="44.89888" lon="0.27264">
        <ele>74.599998474121</ele>
        <time>2013-03-13T15:09:08.000Z</time>
      </trkpt>
      <trkpt lat="44.89888" lon="0.27261">
        <ele>74.599998474121</ele>
        <time>2013-03-13T15:09:09.000Z</time>
      </trkpt>
      <trkpt lat="44.89888" lon="0.27261">
        <ele>74.599998474121</ele>
        <time>2013-03-13T15:09:10.000Z</time>
      </trkpt>
      <trkpt lat="44.89884" lon="0.27261">
        <ele>75</ele>
        <time>2013-03-13T15:09:12.000Z</time>
      </trkpt>
      <trkpt lat="44.89872" lon="0.27266">
        <ele>76</ele>
        <time>2013-03-13T15:09:17.000Z</time>
      </trkpt>
      <trkpt lat="44.89854" lon="0.27267">
        <ele>77.800003051758</ele>
        <time>2013-03-13T15:09:23.000Z</time>
      </trkpt>
      <trkpt lat="44.89841" lon="0.2727">
        <ele>79.199996948242</ele>
        <time>2013-03-13T15:09:28.000Z</time>
      </trkpt>
      <trkpt lat="44.89836" lon="0.2727">
        <ele>79.599998474121</ele>
        <time>2013-03-13T15:09:30.000Z</time>
      </trkpt>
      <trkpt lat="44.89828" lon="0.27268">
        <ele>80</ele>
        <time>2013-03-13T15:09:33.000Z</time>
      </trkpt>
      <trkpt lat="44.89818" lon="0.27269">
        <ele>80.400001525879</ele>
        <time>2013-03-13T15:09:37.000Z</time>
      </trkpt>
      <trkpt lat="44.89813" lon="0.27268">
        <ele>80.599998474121</ele>
        <time>2013-03-13T15:09:39.000Z</time>
      </trkpt>
      <trkpt lat="44.89801" lon="0.27267">
        <ele>81</ele>
        <time>2013-03-13T15:09:44.000Z</time>
      </trkpt>
      <trkpt lat="44.89799" lon="0.27267">
        <ele>81</ele>
        <time>2013-03-13T15:09:45.000Z</time>
      </trkpt>
      <trkpt lat="44.89788" lon="0.27268">
        <ele>81.400001525879</ele>
        <time>2013-03-13T15:09:50.000Z</time>
      </trkpt>
      <trkpt lat="44.8978" lon="0.27268">
        <ele>81.599998474121</ele>
        <time>2013-03-13T15:09:53.000Z</time>
      </trkpt>
      <trkpt lat="44.89778" lon="0.27268">
        <ele>81.599998474121</ele>
        <time>2013-03-13T15:09:54.000Z</time>
      </trkpt>
      <trkpt lat="44.89763" lon="0.27265">
        <ele>82</ele>
        <time>2013-03-13T15:09:59.000Z</time>
      </trkpt>
      <trkpt lat="44.89761" lon="0.27264">
        <ele>82</ele>
        <time>2013-03-13T15:10:00.000Z</time>
      </trkpt>
      <trkpt lat="44.8975" lon="0.27264">
        <ele>82.400001525879</ele>
        <time>2013-03-13T15:10:04.000Z</time>
      </trkpt>
      <trkpt lat="44.89742" lon="0.27268">
        <ele>82.400001525879</ele>
        <time>2013-03-13T15:10:07.000Z</time>
      </trkpt>
      <trkpt lat="44.89735" lon="0.2727">
        <ele>82.400001525879</ele>
        <time>2013-03-13T15:10:09.000Z</time>
      </trkpt>
      <trkpt lat="44.89733" lon="0.27269">
        <ele>82.400001525879</ele>
        <time>2013-03-13T15:10:10.000Z</time>
      </trkpt>
      <trkpt lat="44.89731" lon="0.27259">
        <ele>82.199996948242</ele>
        <time>2013-03-13T15:10:13.000Z</time>
      </trkpt>
      <trkpt lat="44.89731" lon="0.27256">
        <ele>82</ele>
        <time>2013-03-13T15:10:14.000Z</time>
      </trkpt>
      <trkpt lat="44.89728" lon="0.2725">
        <ele>82</ele>
        <time>2013-03-13T15:10:16.000Z</time>
      </trkpt>
      <trkpt lat="44.89726" lon="0.27249">
        <ele>81.800003051758</ele>
        <time>2013-03-13T15:10:17.000Z</time>
      </trkpt>
      <trkpt lat="44.89718" lon="0.27239">
        <ele>81.800003051758</ele>
        <time>2013-03-13T15:10:21.000Z</time>
      </trkpt>
      <trkpt lat="44.89717" lon="0.27224">
        <ele>81.800003051758</ele>
        <time>2013-03-13T15:10:24.000Z</time>
      </trkpt>
      <trkpt lat="44.89718" lon="0.27219">
        <ele>81.800003051758</ele>
        <time>2013-03-13T15:10:25.000Z</time>
      </trkpt>
      <trkpt lat="44.89718" lon="0.27213">
        <ele>81.800003051758</ele>
        <time>2013-03-13T15:10:26.000Z</time>
      </trkpt>
      <trkpt lat="44.89722" lon="0.27198">
        <ele>81.800003051758</ele>
        <time>2013-03-13T15:10:29.000Z</time>
      </trkpt>
      <trkpt lat="44.89723" lon="0.27186">
        <ele>81.599998474121</ele>
        <time>2013-03-13T15:10:32.000Z</time>
      </trkpt>
      <trkpt lat="44.89725" lon="0.27179">
        <ele>81.599998474121</ele>
        <time>2013-03-13T15:10:34.000Z</time>
      </trkpt>
      <trkpt lat="44.89734" lon="0.27167">
        <ele>81.199996948242</ele>
        <time>2013-03-13T15:10:37.000Z</time>
      </trkpt>
      <trkpt lat="44.89737" lon="0.27164">
        <ele>81.199996948242</ele>
        <time>2013-03-13T15:10:38.000Z</time>
      </trkpt>
      <trkpt lat="44.89747" lon="0.27147">
        <ele>80.599998474121</ele>
        <time>2013-03-13T15:10:42.000Z</time>
      </trkpt>
      <trkpt lat="44.89747" lon="0.27121">
        <ele>80</ele>
        <time>2013-03-13T15:10:46.000Z</time>
      </trkpt>
      <trkpt lat="44.89746" lon="0.27103">
        <ele>79.599998474121</ele>
        <time>2013-03-13T15:10:49.000Z</time>
      </trkpt>
      <trkpt lat="44.89746" lon="0.27092">
        <ele>79.400001525879</ele>
        <time>2013-03-13T15:10:51.000Z</time>
      </trkpt>
      <trkpt lat="44.89749" lon="0.2707">
        <ele>78.800003051758</ele>
        <time>2013-03-13T15:10:55.000Z</time>
      </trkpt>
      <trkpt lat="44.89751" lon="0.27067">
        <ele>78.599998474121</ele>
        <time>2013-03-13T15:10:56.000Z</time>
      </trkpt>
      <trkpt lat="44.89755" lon="0.27064">
        <ele>78.400001525879</ele>
        <time>2013-03-13T15:10:58.000Z</time>
      </trkpt>
      <trkpt lat="44.89751" lon="0.27059">
        <ele>78.599998474121</ele>
        <time>2013-03-13T15:11:01.000Z</time>
      </trkpt>
      <trkpt lat="44.89746" lon="0.27049">
        <ele>78.800003051758</ele>
        <time>2013-03-13T15:11:04.000Z</time>
      </trkpt>
      <trkpt lat="44.89745" lon="0.27044">
        <ele>78.800003051758</ele>
        <time>2013-03-13T15:11:05.000Z</time>
      </trkpt>
      <trkpt lat="44.89739" lon="0.27029">
        <ele>79</ele>
        <time>2013-03-13T15:11:09.000Z</time>
      </trkpt>
      <trkpt lat="44.89738" lon="0.27025">
        <ele>79</ele>
        <time>2013-03-13T15:11:10.000Z</time>
      </trkpt>
      <trkpt lat="44.89728" lon="0.27017">
        <ele>79.599998474121</ele>
        <time>2013-03-13T15:11:14.000Z</time>
      </trkpt>
      <trkpt lat="44.89722" lon="0.27012">
        <ele>80</ele>
        <time>2013-03-13T15:11:16.000Z</time>
      </trkpt>
      <trkpt lat="44.89721" lon="0.27005">
        <ele>80</ele>
        <time>2013-03-13T15:11:18.000Z</time>
      </trkpt>
      <trkpt lat="44.8973" lon="0.26991">
        <ele>79.800003051758</ele>
        <time>2013-03-13T15:11:21.000Z</time>
      </trkpt>
      <trkpt lat="44.89733" lon="0.26986">
        <ele>79.800003051758</ele>
        <time>2013-03-13T15:11:22.000Z</time>
      </trkpt>
      <trkpt lat="44.89737" lon="0.26975">
        <ele>80</ele>
        <time>2013-03-13T15:11:25.000Z</time>
      </trkpt>
      <trkpt lat="44.89736" lon="0.26971">
        <ele>80.199996948242</ele>
        <time>2013-03-13T15:11:26.000Z</time>
      </trkpt>
      <trkpt lat="44.89737" lon="0.26967">
        <ele>80.400001525879</ele>
        <time>2013-03-13T15:11:27.000Z</time>
      </trkpt>
      <trkpt lat="44.89737" lon="0.2695">
        <ele>81.199996948242</ele>
        <time>2013-03-13T15:11:31.000Z</time>
      </trkpt>
      <trkpt lat="44.89737" lon="0.2694">
        <ele>81.800003051758</ele>
        <time>2013-03-13T15:11:34.000Z</time>
      </trkpt>
      <trkpt lat="44.89735" lon="0.26938">
        <ele>82</ele>
        <time>2013-03-13T15:11:35.000Z</time>
      </trkpt>
      <trkpt lat="44.89722" lon="0.26931">
        <ele>83.199996948242</ele>
        <time>2013-03-13T15:11:39.000Z</time>
      </trkpt>
      <trkpt lat="44.8972" lon="0.26927">
        <ele>83.599998474121</ele>
        <time>2013-03-13T15:11:40.000Z</time>
      </trkpt>
      <trkpt lat="44.89718" lon="0.26914">
        <ele>84.400001525879</ele>
        <time>2013-03-13T15:11:43.000Z</time>
      </trkpt>
      <trkpt lat="44.89711" lon="0.26907">
        <ele>85.199996948242</ele>
        <time>2013-03-13T15:11:46.000Z</time>
      </trkpt>
      <trkpt lat="44.89708" lon="0.26904">
        <ele>85.599998474121</ele>
        <time>2013-03-13T15:11:47.000Z</time>
      </trkpt>
      <trkpt lat="44.89707" lon="0.269">
        <ele>85.800003051758</ele>
        <time>2013-03-13T15:11:48.000Z</time>
      </trkpt>
      <trkpt lat="44.89701" lon="0.26889">
        <ele>86.800003051758</ele>
        <time>2013-03-13T15:11:51.000Z</time>
      </trkpt>
      <trkpt lat="44.89698" lon="0.26887">
        <ele>87</ele>
        <time>2013-03-13T15:11:52.000Z</time>
      </trkpt>
      <trkpt lat="44.89692" lon="0.26875">
        <ele>88</ele>
        <time>2013-03-13T15:11:56.000Z</time>
      </trkpt>
      <trkpt lat="44.89691" lon="0.26871">
        <ele>88.400001525879</ele>
        <time>2013-03-13T15:11:57.000Z</time>
      </trkpt>
      <trkpt lat="44.89688" lon="0.26865">
        <ele>88.800003051758</ele>
        <time>2013-03-13T15:11:59.000Z</time>
      </trkpt>
      <trkpt lat="44.89684" lon="0.26861">
        <ele>89.400001525879</ele>
        <time>2013-03-13T15:12:01.000Z</time>
      </trkpt>
      <trkpt lat="44.89675" lon="0.26848">
        <ele>90.599998474121</ele>
        <time>2013-03-13T15:12:05.000Z</time>
      </trkpt>
      <trkpt lat="44.89672" lon="0.26845">
        <ele>91</ele>
        <time>2013-03-13T15:12:06.000Z</time>
      </trkpt>
      <trkpt lat="44.89665" lon="0.26838">
        <ele>91.800003051758</ele>
        <time>2013-03-13T15:12:11.000Z</time>
      </trkpt>
      <trkpt lat="44.8966" lon="0.26831">
        <ele>92</ele>
        <time>2013-03-13T15:12:14.000Z</time>
      </trkpt>
      <trkpt lat="44.89657" lon="0.26829">
        <ele>92.199996948242</ele>
        <time>2013-03-13T15:12:15.000Z</time>
      </trkpt>
      <trkpt lat="44.89649" lon="0.26825">
        <ele>92.400001525879</ele>
        <time>2013-03-13T15:12:19.000Z</time>
      </trkpt>
      <trkpt lat="44.89647" lon="0.26826">
        <ele>92.400001525879</ele>
        <time>2013-03-13T15:12:20.000Z</time>
      </trkpt>
      <trkpt lat="44.89644" lon="0.26826">
        <ele>92.400001525879</ele>
        <time>2013-03-13T15:12:23.000Z</time>
      </trkpt>
      <trkpt lat="44.89644" lon="0.26825">
        <ele>92.400001525879</ele>
        <time>2013-03-13T15:12:24.000Z</time>
      </trkpt>
      <trkpt lat="44.89644" lon="0.26823">
        <ele>92.599998474121</ele>
        <time>2013-03-13T15:12:25.000Z</time>
      </trkpt>
      <trkpt lat="44.89638" lon="0.26822">
        <ele>92.599998474121</ele>
        <time>2013-03-13T15:12:29.000Z</time>
      </trkpt>
      <trkpt lat="44.89628" lon="0.26827">
        <ele>92.199996948242</ele>
        <time>2013-03-13T15:12:34.000Z</time>
      </trkpt>
      <trkpt lat="44.89624" lon="0.26827">
        <ele>92.199996948242</ele>
        <time>2013-03-13T15:12:36.000Z</time>
      </trkpt>
      <trkpt lat="44.89625" lon="0.26823">
        <ele>92.400001525879</ele>
        <time>2013-03-13T15:12:38.000Z</time>
      </trkpt>
      <trkpt lat="44.89631" lon="0.26814">
        <ele>93</ele>
        <time>2013-03-13T15:12:42.000Z</time>
      </trkpt>
      <trkpt lat="44.89633" lon="0.26813">
        <ele>93.199996948242</ele>
        <time>2013-03-13T15:12:43.000Z</time>
      </trkpt>
      <trkpt lat="44.89645" lon="0.26803">
        <ele>94</ele>
        <time>2013-03-13T15:12:49.000Z</time>
      </trkpt>
      <trkpt lat="44.89648" lon="0.26797">
        <ele>94.400001525879</ele>
        <time>2013-03-13T15:12:52.000Z</time>
      </trkpt>
      <trkpt lat="44.8965" lon="0.26794">
        <ele>94.599998474121</ele>
        <time>2013-03-13T15:12:55.000Z</time>
      </trkpt>
      <trkpt lat="44.8965" lon="0.26793">
        <ele>94.800003051758</ele>
        <time>2013-03-13T15:12:56.000Z</time>
      </trkpt>
      <trkpt lat="44.89654" lon="0.26787">
        <ele>95.400001525879</ele>
        <time>2013-03-13T15:13:01.000Z</time>
      </trkpt>
      <trkpt lat="44.89662" lon="0.26781">
        <ele>96.199996948242</ele>
        <time>2013-03-13T15:13:05.000Z</time>
      </trkpt>
      <trkpt lat="44.89663" lon="0.2678">
        <ele>96.199996948242</ele>
        <time>2013-03-13T15:13:06.000Z</time>
      </trkpt>
      <trkpt lat="44.8967" lon="0.26767">
        <ele>97.400001525879</ele>
        <time>2013-03-13T15:13:13.000Z</time>
      </trkpt>
      <trkpt lat="44.89673" lon="0.26759">
        <ele>97.800003051758</ele>
        <time>2013-03-13T15:13:16.000Z</time>
      </trkpt>
      <trkpt lat="44.89676" lon="0.26751">
        <ele>98.199996948242</ele>
        <time>2013-03-13T15:13:19.000Z</time>
      </trkpt>
      <trkpt lat="44.89678" lon="0.26736">
        <ele>98.599998474121</ele>
        <time>2013-03-13T15:13:24.000Z</time>
      </trkpt>
      <trkpt lat="44.89679" lon="0.26732">
        <ele>98.599998474121</ele>
        <time>2013-03-13T15:13:25.000Z</time>
      </trkpt>
      <trkpt lat="44.8968" lon="0.26728">
        <ele>98.800003051758</ele>
        <time>2013-03-13T15:13:26.000Z</time>
      </trkpt>
      <trkpt lat="44.8968" lon="0.26721">
        <ele>99</ele>
        <time>2013-03-13T15:13:28.000Z</time>
      </trkpt>
      <trkpt lat="44.89678" lon="0.26717">
        <ele>99.199996948242</ele>
        <time>2013-03-13T15:13:29.000Z</time>
      </trkpt>
      <trkpt lat="44.89673" lon="0.26708">
        <ele>100</ele>
        <time>2013-03-13T15:13:32.000Z</time>
      </trkpt>
      <trkpt lat="44.8967" lon="0.26699">
        <ele>100.40000152588</ele>
        <time>2013-03-13T15:13:34.000Z</time>
      </trkpt>
      <trkpt lat="44.89671" lon="0.26695">
        <ele>100.40000152588</ele>
        <time>2013-03-13T15:13:35.000Z</time>
      </trkpt>
      <trkpt lat="44.89671" lon="0.26686">
        <ele>100.80000305176</ele>
        <time>2013-03-13T15:13:37.000Z</time>
      </trkpt>
      <trkpt lat="44.89671" lon="0.26682">
        <ele>101</ele>
        <time>2013-03-13T15:13:38.000Z</time>
      </trkpt>
      <trkpt lat="44.89669" lon="0.26671">
        <ele>101.40000152588</ele>
        <time>2013-03-13T15:13:41.000Z</time>
      </trkpt>
      <trkpt lat="44.89667" lon="0.26657">
        <ele>102</ele>
        <time>2013-03-13T15:13:44.000Z</time>
      </trkpt>
      <trkpt lat="44.89665" lon="0.26648">
        <ele>102</ele>
        <time>2013-03-13T15:13:46.000Z</time>
      </trkpt>
      <trkpt lat="44.89665" lon="0.2663">
        <ele>102.19999694824</ele>
        <time>2013-03-13T15:13:50.000Z</time>
      </trkpt>
      <trkpt lat="44.89666" lon="0.26625">
        <ele>102.40000152588</ele>
        <time>2013-03-13T15:13:51.000Z</time>
      </trkpt>
      <trkpt lat="44.89665" lon="0.26606">
        <ele>102.59999847412</ele>
        <time>2013-03-13T15:13:55.000Z</time>
      </trkpt>
      <trkpt lat="44.89665" lon="0.26602">
        <ele>102.59999847412</ele>
        <time>2013-03-13T15:13:56.000Z</time>
      </trkpt>
      <trkpt lat="44.89666" lon="0.26589">
        <ele>102.80000305176</ele>
        <time>2013-03-13T15:13:59.000Z</time>
      </trkpt>
      <trkpt lat="44.89667" lon="0.26578">
        <ele>102.80000305176</ele>
        <time>2013-03-13T15:14:01.000Z</time>
      </trkpt>
      <trkpt lat="44.89671" lon="0.26572">
        <ele>102.19999694824</ele>
        <time>2013-03-13T15:14:03.000Z</time>
      </trkpt>
      <trkpt lat="44.89675" lon="0.26566">
        <ele>101.59999847412</ele>
        <time>2013-03-13T15:14:05.000Z</time>
      </trkpt>
      <trkpt lat="44.89677" lon="0.26559">
        <ele>101.40000152588</ele>
        <time>2013-03-13T15:14:07.000Z</time>
      </trkpt>
      <trkpt lat="44.89678" lon="0.26555">
        <ele>101.19999694824</ele>
        <time>2013-03-13T15:14:08.000Z</time>
      </trkpt>
      <trkpt lat="44.89682" lon="0.26546">
        <ele>100.59999847412</ele>
        <time>2013-03-13T15:14:11.000Z</time>
      </trkpt>
      <trkpt lat="44.89682" lon="0.26543">
        <ele>100.59999847412</ele>
        <time>2013-03-13T15:14:12.000Z</time>
      </trkpt>
      <trkpt lat="44.89681" lon="0.26529">
        <ele>100.59999847412</ele>
        <time>2013-03-13T15:14:16.000Z</time>
      </trkpt>
      <trkpt lat="44.8968" lon="0.26525">
        <ele>100.80000305176</ele>
        <time>2013-03-13T15:14:17.000Z</time>
      </trkpt>
      <trkpt lat="44.89674" lon="0.26505">
        <ele>101.59999847412</ele>
        <time>2013-03-13T15:14:22.000Z</time>
      </trkpt>
      <trkpt lat="44.89673" lon="0.265">
        <ele>101.80000305176</ele>
        <time>2013-03-13T15:14:23.000Z</time>
      </trkpt>
      <trkpt lat="44.89669" lon="0.26476">
        <ele>102.80000305176</ele>
        <time>2013-03-13T15:14:28.000Z</time>
      </trkpt>
      <trkpt lat="44.89667" lon="0.26473">
        <ele>103.19999694824</ele>
        <time>2013-03-13T15:14:29.000Z</time>
      </trkpt>
      <trkpt lat="44.89663" lon="0.26461">
        <ele>103.40000152588</ele>
        <time>2013-03-13T15:14:32.000Z</time>
      </trkpt>
      <trkpt lat="44.89659" lon="0.26451">
        <ele>103.40000152588</ele>
        <time>2013-03-13T15:14:35.000Z</time>
      </trkpt>
      <trkpt lat="44.89658" lon="0.26444">
        <ele>103.59999847412</ele>
        <time>2013-03-13T15:14:37.000Z</time>
      </trkpt>
      <trkpt lat="44.89657" lon="0.26436">
        <ele>103.59999847412</ele>
        <time>2013-03-13T15:14:39.000Z</time>
      </trkpt>
      <trkpt lat="44.89654" lon="0.26429">
        <ele>103.80000305176</ele>
        <time>2013-03-13T15:14:41.000Z</time>
      </trkpt>
      <trkpt lat="44.89653" lon="0.26425">
        <ele>103.80000305176</ele>
        <time>2013-03-13T15:14:42.000Z</time>
      </trkpt>
      <trkpt lat="44.89652" lon="0.26421">
        <ele>103.80000305176</ele>
        <time>2013-03-13T15:14:43.000Z</time>
      </trkpt>
      <trkpt lat="44.89653" lon="0.26407">
        <ele>103.80000305176</ele>
        <time>2013-03-13T15:14:46.000Z</time>
      </trkpt>
      <trkpt lat="44.89652" lon="0.26398">
        <ele>103.80000305176</ele>
        <time>2013-03-13T15:14:48.000Z</time>
      </trkpt>
      <trkpt lat="44.89656" lon="0.26378">
        <ele>103.59999847412</ele>
        <time>2013-03-13T15:14:52.000Z</time>
      </trkpt>
      <trkpt lat="44.89656" lon="0.2637">
        <ele>103.40000152588</ele>
        <time>2013-03-13T15:14:54.000Z</time>
      </trkpt>
      <trkpt lat="44.89654" lon="0.26363">
        <ele>103.40000152588</ele>
        <time>2013-03-13T15:14:56.000Z</time>
      </trkpt>
      <trkpt lat="44.89652" lon="0.2636">
        <ele>103.40000152588</ele>
        <time>2013-03-13T15:14:57.000Z</time>
      </trkpt>
      <trkpt lat="44.89645" lon="0.2635">
        <ele>103.40000152588</ele>
        <time>2013-03-13T15:15:01.000Z</time>
      </trkpt>
      <trkpt lat="44.89641" lon="0.26345">
        <ele>103.40000152588</ele>
        <time>2013-03-13T15:15:03.000Z</time>
      </trkpt>
      <trkpt lat="44.89633" lon="0.26339">
        <ele>103.40000152588</ele>
        <time>2013-03-13T15:15:06.000Z</time>
      </trkpt>
      <trkpt lat="44.89628" lon="0.26336">
        <ele>103.40000152588</ele>
        <time>2013-03-13T15:15:08.000Z</time>
      </trkpt>
      <trkpt lat="44.89624" lon="0.26337">
        <ele>103.40000152588</ele>
        <time>2013-03-13T15:15:10.000Z</time>
      </trkpt>
      <trkpt lat="44.8962" lon="0.26338">
        <ele>103.40000152588</ele>
        <time>2013-03-13T15:15:12.000Z</time>
      </trkpt>
      <trkpt lat="44.89619" lon="0.26339">
        <ele>103.59999847412</ele>
        <time>2013-03-13T15:15:14.000Z</time>
      </trkpt>
      <trkpt lat="44.89612" lon="0.2634">
        <ele>103.59999847412</ele>
        <time>2013-03-13T15:15:20.000Z</time>
      </trkpt>
      <trkpt lat="44.8961" lon="0.2634">
        <ele>103.59999847412</ele>
        <time>2013-03-13T15:15:21.000Z</time>
      </trkpt>
      <trkpt lat="44.89601" lon="0.26338">
        <ele>103.80000305176</ele>
        <time>2013-03-13T15:15:25.000Z</time>
      </trkpt>
      <trkpt lat="44.89592" lon="0.26337">
        <ele>103.80000305176</ele>
        <time>2013-03-13T15:15:28.000Z</time>
      </trkpt>
      <trkpt lat="44.89587" lon="0.26336">
        <ele>103.80000305176</ele>
        <time>2013-03-13T15:15:30.000Z</time>
      </trkpt>
      <trkpt lat="44.89574" lon="0.26334">
        <ele>103</ele>
        <time>2013-03-13T15:15:34.000Z</time>
      </trkpt>
      <trkpt lat="44.89567" lon="0.26335">
        <ele>102.19999694824</ele>
        <time>2013-03-13T15:15:36.000Z</time>
      </trkpt>
      <trkpt lat="44.89553" lon="0.26334">
        <ele>100.59999847412</ele>
        <time>2013-03-13T15:15:40.000Z</time>
      </trkpt>
      <trkpt lat="44.89536" lon="0.26334">
        <ele>98.800003051758</ele>
        <time>2013-03-13T15:15:45.000Z</time>
      </trkpt>
      <trkpt lat="44.89533" lon="0.26335">
        <ele>98.400001525879</ele>
        <time>2013-03-13T15:15:46.000Z</time>
      </trkpt>
      <trkpt lat="44.89521" lon="0.26333">
        <ele>97.199996948242</ele>
        <time>2013-03-13T15:15:50.000Z</time>
      </trkpt>
      <trkpt lat="44.89515" lon="0.26332">
        <ele>96.400001525879</ele>
        <time>2013-03-13T15:15:52.000Z</time>
      </trkpt>
      <trkpt lat="44.89507" lon="0.2633">
        <ele>95.599998474121</ele>
        <time>2013-03-13T15:15:55.000Z</time>
      </trkpt>
      <trkpt lat="44.89494" lon="0.26329">
        <ele>94.599998474121</ele>
        <time>2013-03-13T15:15:59.000Z</time>
      </trkpt>
      <trkpt lat="44.89482" lon="0.26329">
        <ele>93.800003051758</ele>
        <time>2013-03-13T15:16:03.000Z</time>
      </trkpt>
      <trkpt lat="44.89474" lon="0.26329">
        <ele>93.400001525879</ele>
        <time>2013-03-13T15:16:05.000Z</time>
      </trkpt>
      <trkpt lat="44.89464" lon="0.26328">
        <ele>92.800003051758</ele>
        <time>2013-03-13T15:16:08.000Z</time>
      </trkpt>
      <trkpt lat="44.89454" lon="0.26328">
        <ele>92.199996948242</ele>
        <time>2013-03-13T15:16:11.000Z</time>
      </trkpt>
      <trkpt lat="44.89445" lon="0.26327">
        <ele>91.599998474121</ele>
        <time>2013-03-13T15:16:14.000Z</time>
      </trkpt>
      <trkpt lat="44.89435" lon="0.2632">
        <ele>91.199996948242</ele>
        <time>2013-03-13T15:16:19.000Z</time>
      </trkpt>
      <trkpt lat="44.89426" lon="0.26324">
        <ele>90.599998474121</ele>
        <time>2013-03-13T15:16:23.000Z</time>
      </trkpt>
      <trkpt lat="44.89424" lon="0.26325">
        <ele>90.599998474121</ele>
        <time>2013-03-13T15:16:24.000Z</time>
      </trkpt>
      <trkpt lat="44.89419" lon="0.26333">
        <ele>90</ele>
        <time>2013-03-13T15:16:27.000Z</time>
      </trkpt>
      <trkpt lat="44.89417" lon="0.26337">
        <ele>89.800003051758</ele>
        <time>2013-03-13T15:16:28.000Z</time>
      </trkpt>
      <trkpt lat="44.8941" lon="0.26348">
        <ele>89.800003051758</ele>
        <time>2013-03-13T15:16:32.000Z</time>
      </trkpt>
      <trkpt lat="44.89409" lon="0.26348">
        <ele>89.800003051758</ele>
        <time>2013-03-13T15:16:33.000Z</time>
      </trkpt>
      <trkpt lat="44.89408" lon="0.26352">
        <ele>89.800003051758</ele>
        <time>2013-03-13T15:16:36.000Z</time>
      </trkpt>
      <trkpt lat="44.89407" lon="0.26353">
        <ele>89.800003051758</ele>
        <time>2013-03-13T15:16:37.000Z</time>
      </trkpt>
      <trkpt lat="44.89401" lon="0.26348">
        <ele>90</ele>
        <time>2013-03-13T15:16:57.000Z</time>
      </trkpt>
      <trkpt lat="44.894" lon="0.26349">
        <ele>90</ele>
        <time>2013-03-13T15:16:58.000Z</time>
      </trkpt>
      <trkpt lat="44.89398" lon="0.26348">
        <ele>90</ele>
        <time>2013-03-13T15:16:59.000Z</time>
      </trkpt>
      <trkpt lat="44.89395" lon="0.26346">
        <ele>90.199996948242</ele>
        <time>2013-03-13T15:17:02.000Z</time>
      </trkpt>
      <trkpt lat="44.89385" lon="0.26348">
        <ele>90.400001525879</ele>
        <time>2013-03-13T15:17:07.000Z</time>
      </trkpt>
      <trkpt lat="44.8938" lon="0.26349">
        <ele>90.400001525879</ele>
        <time>2013-03-13T15:17:09.000Z</time>
      </trkpt>
      <trkpt lat="44.89375" lon="0.26351">
        <ele>90.400001525879</ele>
        <time>2013-03-13T15:17:11.000Z</time>
      </trkpt>
      <trkpt lat="44.89363" lon="0.26351">
        <ele>90.800003051758</ele>
        <time>2013-03-13T15:17:15.000Z</time>
      </trkpt>
      <trkpt lat="44.8936" lon="0.26352">
        <ele>90.800003051758</ele>
        <time>2013-03-13T15:17:16.000Z</time>
      </trkpt>
      <trkpt lat="44.89351" lon="0.26353">
        <ele>90.800003051758</ele>
        <time>2013-03-13T15:17:19.000Z</time>
      </trkpt>
      <trkpt lat="44.89348" lon="0.26353">
        <ele>91</ele>
        <time>2013-03-13T15:17:20.000Z</time>
      </trkpt>
      <trkpt lat="44.8934" lon="0.26358">
        <ele>91</ele>
        <time>2013-03-13T15:17:23.000Z</time>
      </trkpt>
      <trkpt lat="44.89337" lon="0.26361">
        <ele>90.800003051758</ele>
        <time>2013-03-13T15:17:24.000Z</time>
      </trkpt>
      <trkpt lat="44.89325" lon="0.26378">
        <ele>90.800003051758</ele>
        <time>2013-03-13T15:17:28.000Z</time>
      </trkpt>
      <trkpt lat="44.89314" lon="0.26385">
        <ele>91.199996948242</ele>
        <time>2013-03-13T15:17:31.000Z</time>
      </trkpt>
      <trkpt lat="44.8931" lon="0.26385">
        <ele>91.400001525879</ele>
        <time>2013-03-13T15:17:32.000Z</time>
      </trkpt>
      <trkpt lat="44.89307" lon="0.26385">
        <ele>91.599998474121</ele>
        <time>2013-03-13T15:17:33.000Z</time>
      </trkpt>
      <trkpt lat="44.89297" lon="0.26387">
        <ele>92.199996948242</ele>
        <time>2013-03-13T15:17:36.000Z</time>
      </trkpt>
      <trkpt lat="44.89288" lon="0.26387">
        <ele>92.599998474121</ele>
        <time>2013-03-13T15:17:39.000Z</time>
      </trkpt>
      <trkpt lat="44.89286" lon="0.26388">
        <ele>92.800003051758</ele>
        <time>2013-03-13T15:17:40.000Z</time>
      </trkpt>
      <trkpt lat="44.89272" lon="0.26398">
        <ele>93.199996948242</ele>
        <time>2013-03-13T15:17:44.000Z</time>
      </trkpt>
      <trkpt lat="44.89254" lon="0.26398">
        <ele>94.400001525879</ele>
        <time>2013-03-13T15:17:49.000Z</time>
      </trkpt>
      <trkpt lat="44.89246" lon="0.26396">
        <ele>95</ele>
        <time>2013-03-13T15:17:51.000Z</time>
      </trkpt>
      <trkpt lat="44.89239" lon="0.26393">
        <ele>95.800003051758</ele>
        <time>2013-03-13T15:17:53.000Z</time>
      </trkpt>
      <trkpt lat="44.89236" lon="0.26392">
        <ele>96</ele>
        <time>2013-03-13T15:17:54.000Z</time>
      </trkpt>
      <trkpt lat="44.89224" lon="0.26389">
        <ele>97.199996948242</ele>
        <time>2013-03-13T15:17:58.000Z</time>
      </trkpt>
      <trkpt lat="44.89217" lon="0.26389">
        <ele>98</ele>
        <time>2013-03-13T15:18:00.000Z</time>
      </trkpt>
      <trkpt lat="44.89209" lon="0.26386">
        <ele>98.800003051758</ele>
        <time>2013-03-13T15:18:03.000Z</time>
      </trkpt>
      <trkpt lat="44.89198" lon="0.26381">
        <ele>100</ele>
        <time>2013-03-13T15:18:07.000Z</time>
      </trkpt>
      <trkpt lat="44.89195" lon="0.2638">
        <ele>100.40000152588</ele>
        <time>2013-03-13T15:18:08.000Z</time>
      </trkpt>
      <trkpt lat="44.89179" lon="0.26377">
        <ele>102.19999694824</ele>
        <time>2013-03-13T15:18:13.000Z</time>
      </trkpt>
      <trkpt lat="44.89161" lon="0.26367">
        <ele>104</ele>
        <time>2013-03-13T15:18:19.000Z</time>
      </trkpt>
      <trkpt lat="44.89149" lon="0.2636">
        <ele>104.59999847412</ele>
        <time>2013-03-13T15:18:24.000Z</time>
      </trkpt>
      <trkpt lat="44.89144" lon="0.26355">
        <ele>104.80000305176</ele>
        <time>2013-03-13T15:18:26.000Z</time>
      </trkpt>
      <trkpt lat="44.89139" lon="0.26352">
        <ele>105</ele>
        <time>2013-03-13T15:18:28.000Z</time>
      </trkpt>
      <trkpt lat="44.89127" lon="0.26345">
        <ele>105.40000152588</ele>
        <time>2013-03-13T15:18:32.000Z</time>
      </trkpt>
      <trkpt lat="44.89124" lon="0.26344">
        <ele>105.40000152588</ele>
        <time>2013-03-13T15:18:33.000Z</time>
      </trkpt>
      <trkpt lat="44.89112" lon="0.26335">
        <ele>105.80000305176</ele>
        <time>2013-03-13T15:18:38.000Z</time>
      </trkpt>
      <trkpt lat="44.89109" lon="0.26333">
        <ele>106</ele>
        <time>2013-03-13T15:18:39.000Z</time>
      </trkpt>
      <trkpt lat="44.89099" lon="0.26324">
        <ele>106</ele>
        <time>2013-03-13T15:18:43.000Z</time>
      </trkpt>
      <trkpt lat="44.89094" lon="0.26318">
        <ele>106</ele>
        <time>2013-03-13T15:18:45.000Z</time>
      </trkpt>
      <trkpt lat="44.89083" lon="0.26308">
        <ele>106</ele>
        <time>2013-03-13T15:18:49.000Z</time>
      </trkpt>
      <trkpt lat="44.89076" lon="0.26305">
        <ele>105.19999694824</ele>
        <time>2013-03-13T15:18:51.000Z</time>
      </trkpt>
      <trkpt lat="44.89069" lon="0.26296">
        <ele>104.40000152588</ele>
        <time>2013-03-13T15:18:54.000Z</time>
      </trkpt>
      <trkpt lat="44.89068" lon="0.26291">
        <ele>104.40000152588</ele>
        <time>2013-03-13T15:18:55.000Z</time>
      </trkpt>
      <trkpt lat="44.89072" lon="0.26282">
        <ele>104.80000305176</ele>
        <time>2013-03-13T15:18:57.000Z</time>
      </trkpt>
      <trkpt lat="44.89081" lon="0.2626">
        <ele>106.40000152588</ele>
        <time>2013-03-13T15:19:02.000Z</time>
      </trkpt>
      <trkpt lat="44.8909" lon="0.2624">
        <ele>106.40000152588</ele>
        <time>2013-03-13T15:19:07.000Z</time>
      </trkpt>
      <trkpt lat="44.89091" lon="0.26236">
        <ele>106.19999694824</ele>
        <time>2013-03-13T15:19:08.000Z</time>
      </trkpt>
      <trkpt lat="44.891" lon="0.2621">
        <ele>105.40000152588</ele>
        <time>2013-03-13T15:19:14.000Z</time>
      </trkpt>
      <trkpt lat="44.89102" lon="0.26206">
        <ele>105.19999694824</ele>
        <time>2013-03-13T15:19:15.000Z</time>
      </trkpt>
      <trkpt lat="44.8911" lon="0.26187">
        <ele>104.80000305176</ele>
        <time>2013-03-13T15:19:20.000Z</time>
      </trkpt>
      <trkpt lat="44.89122" lon="0.26166">
        <ele>104.59999847412</ele>
        <time>2013-03-13T15:19:26.000Z</time>
      </trkpt>
      <trkpt lat="44.89124" lon="0.26162">
        <ele>104.40000152588</ele>
        <time>2013-03-13T15:19:27.000Z</time>
      </trkpt>
      <trkpt lat="44.89136" lon="0.26147">
        <ele>104.19999694824</ele>
        <time>2013-03-13T15:19:32.000Z</time>
      </trkpt>
      <trkpt lat="44.89139" lon="0.26144">
        <ele>104</ele>
        <time>2013-03-13T15:19:33.000Z</time>
      </trkpt>
      <trkpt lat="44.89154" lon="0.26129">
        <ele>104.40000152588</ele>
        <time>2013-03-13T15:19:38.000Z</time>
      </trkpt>
      <trkpt lat="44.89156" lon="0.26125">
        <ele>104.40000152588</ele>
        <time>2013-03-13T15:19:39.000Z</time>
      </trkpt>
      <trkpt lat="44.89169" lon="0.26108">
        <ele>104.80000305176</ele>
        <time>2013-03-13T15:19:44.000Z</time>
      </trkpt>
      <trkpt lat="44.8918" lon="0.26095">
        <ele>104.59999847412</ele>
        <time>2013-03-13T15:19:49.000Z</time>
      </trkpt>
      <trkpt lat="44.89184" lon="0.26089">
        <ele>104.40000152588</ele>
        <time>2013-03-13T15:19:51.000Z</time>
      </trkpt>
      <trkpt lat="44.89194" lon="0.26079">
        <ele>104.19999694824</ele>
        <time>2013-03-13T15:19:55.000Z</time>
      </trkpt>
      <trkpt lat="44.892" lon="0.26069">
        <ele>103.59999847412</ele>
        <time>2013-03-13T15:19:58.000Z</time>
      </trkpt>
      <trkpt lat="44.89209" lon="0.26059">
        <ele>103.40000152588</ele>
        <time>2013-03-13T15:20:02.000Z</time>
      </trkpt>
      <trkpt lat="44.89216" lon="0.26053">
        <ele>103.59999847412</ele>
        <time>2013-03-13T15:20:05.000Z</time>
      </trkpt>
      <trkpt lat="44.8922" lon="0.26049">
        <ele>103.59999847412</ele>
        <time>2013-03-13T15:20:07.000Z</time>
      </trkpt>
      <trkpt lat="44.89231" lon="0.26035">
        <ele>103.80000305176</ele>
        <time>2013-03-13T15:20:12.000Z</time>
      </trkpt>
      <trkpt lat="44.89244" lon="0.26017">
        <ele>104.40000152588</ele>
        <time>2013-03-13T15:20:18.000Z</time>
      </trkpt>
      <trkpt lat="44.89254" lon="0.26">
        <ele>105</ele>
        <time>2013-03-13T15:20:23.000Z</time>
      </trkpt>
      <trkpt lat="44.89256" lon="0.25997">
        <ele>104.80000305176</ele>
        <time>2013-03-13T15:20:24.000Z</time>
      </trkpt>
      <trkpt lat="44.89266" lon="0.2598">
        <ele>104.59999847412</ele>
        <time>2013-03-13T15:20:29.000Z</time>
      </trkpt>
      <trkpt lat="44.89268" lon="0.25977">
        <ele>104.59999847412</ele>
        <time>2013-03-13T15:20:30.000Z</time>
      </trkpt>
      <trkpt lat="44.89277" lon="0.2596">
        <ele>104.80000305176</ele>
        <time>2013-03-13T15:20:35.000Z</time>
      </trkpt>
      <trkpt lat="44.89279" lon="0.25957">
        <ele>104.80000305176</ele>
        <time>2013-03-13T15:20:36.000Z</time>
      </trkpt>
      <trkpt lat="44.8929" lon="0.25936">
        <ele>105.19999694824</ele>
        <time>2013-03-13T15:20:42.000Z</time>
      </trkpt>
      <trkpt lat="44.89291" lon="0.25932">
        <ele>105.40000152588</ele>
        <time>2013-03-13T15:20:43.000Z</time>
      </trkpt>
      <trkpt lat="44.89298" lon="0.25914">
        <ele>105.80000305176</ele>
        <time>2013-03-13T15:20:48.000Z</time>
      </trkpt>
      <trkpt lat="44.89301" lon="0.25908">
        <ele>106</ele>
        <time>2013-03-13T15:20:50.000Z</time>
      </trkpt>
      <trkpt lat="44.89309" lon="0.25889">
        <ele>106.19999694824</ele>
        <time>2013-03-13T15:20:56.000Z</time>
      </trkpt>
      <trkpt lat="44.89311" lon="0.25886">
        <ele>106.19999694824</ele>
        <time>2013-03-13T15:20:57.000Z</time>
      </trkpt>
      <trkpt lat="44.89316" lon="0.25872">
        <ele>106.59999847412</ele>
        <time>2013-03-13T15:21:01.000Z</time>
      </trkpt>
      <trkpt lat="44.8932" lon="0.25861">
        <ele>107</ele>
        <time>2013-03-13T15:21:04.000Z</time>
      </trkpt>
      <trkpt lat="44.89324" lon="0.25851">
        <ele>107.40000152588</ele>
        <time>2013-03-13T15:21:07.000Z</time>
      </trkpt>
      <trkpt lat="44.89329" lon="0.25835">
        <ele>108.19999694824</ele>
        <time>2013-03-13T15:21:11.000Z</time>
      </trkpt>
      <trkpt lat="44.8933" lon="0.25831">
        <ele>108.40000152588</ele>
        <time>2013-03-13T15:21:12.000Z</time>
      </trkpt>
      <trkpt lat="44.89339" lon="0.25813">
        <ele>107.80000305176</ele>
        <time>2013-03-13T15:21:17.000Z</time>
      </trkpt>
      <trkpt lat="44.89341" lon="0.25809">
        <ele>107.59999847412</ele>
        <time>2013-03-13T15:21:18.000Z</time>
      </trkpt>
      <trkpt lat="44.8935" lon="0.25788">
        <ele>106.80000305176</ele>
        <time>2013-03-13T15:21:23.000Z</time>
      </trkpt>
      <trkpt lat="44.89355" lon="0.2578">
        <ele>106.80000305176</ele>
        <time>2013-03-13T15:21:25.000Z</time>
      </trkpt>
      <trkpt lat="44.89363" lon="0.25765">
        <ele>106.59999847412</ele>
        <time>2013-03-13T15:21:29.000Z</time>
      </trkpt>
      <trkpt lat="44.89365" lon="0.25761">
        <ele>106.59999847412</ele>
        <time>2013-03-13T15:21:30.000Z</time>
      </trkpt>
      <trkpt lat="44.89376" lon="0.25742">
        <ele>107.19999694824</ele>
        <time>2013-03-13T15:21:35.000Z</time>
      </trkpt>
      <trkpt lat="44.89384" lon="0.25722">
        <ele>108.59999847412</ele>
        <time>2013-03-13T15:21:40.000Z</time>
      </trkpt>
      <trkpt lat="44.89386" lon="0.25718">
        <ele>108.80000305176</ele>
        <time>2013-03-13T15:21:41.000Z</time>
      </trkpt>
      <trkpt lat="44.89397" lon="0.25699">
        <ele>110.80000305176</ele>
        <time>2013-03-13T15:21:46.000Z</time>
      </trkpt>
      <trkpt lat="44.89399" lon="0.25697">
        <ele>111</ele>
        <time>2013-03-13T15:21:47.000Z</time>
      </trkpt>
      <trkpt lat="44.89408" lon="0.25689">
        <ele>112.40000152588</ele>
        <time>2013-03-13T15:21:50.000Z</time>
      </trkpt>
      <trkpt lat="44.89414" lon="0.25682">
        <ele>113.40000152588</ele>
        <time>2013-03-13T15:21:52.000Z</time>
      </trkpt>
      <trkpt lat="44.89424" lon="0.25675">
        <ele>114.40000152588</ele>
        <time>2013-03-13T15:21:55.000Z</time>
      </trkpt>
      <trkpt lat="44.89432" lon="0.2567">
        <ele>114.80000305176</ele>
        <time>2013-03-13T15:21:58.000Z</time>
      </trkpt>
      <trkpt lat="44.89441" lon="0.25664">
        <ele>115</ele>
        <time>2013-03-13T15:22:01.000Z</time>
      </trkpt>
      <trkpt lat="44.8945" lon="0.25658">
        <ele>115.40000152588</ele>
        <time>2013-03-13T15:22:04.000Z</time>
      </trkpt>
      <trkpt lat="44.89457" lon="0.25654">
        <ele>115.59999847412</ele>
        <time>2013-03-13T15:22:06.000Z</time>
      </trkpt>
      <trkpt lat="44.89469" lon="0.25647">
        <ele>115.80000305176</ele>
        <time>2013-03-13T15:22:10.000Z</time>
      </trkpt>
      <trkpt lat="44.89476" lon="0.25643">
        <ele>116</ele>
        <time>2013-03-13T15:22:12.000Z</time>
      </trkpt>
      <trkpt lat="44.89486" lon="0.25637">
        <ele>116.19999694824</ele>
        <time>2013-03-13T15:22:15.000Z</time>
      </trkpt>
      <trkpt lat="44.89496" lon="0.2563">
        <ele>116.19999694824</ele>
        <time>2013-03-13T15:22:18.000Z</time>
      </trkpt>
      <trkpt lat="44.89505" lon="0.25623">
        <ele>116.59999847412</ele>
        <time>2013-03-13T15:22:21.000Z</time>
      </trkpt>
      <trkpt lat="44.89507" lon="0.25621">
        <ele>116.59999847412</ele>
        <time>2013-03-13T15:22:22.000Z</time>
      </trkpt>
      <trkpt lat="44.89514" lon="0.25609">
        <ele>117</ele>
        <time>2013-03-13T15:22:26.000Z</time>
      </trkpt>
      <trkpt lat="44.89513" lon="0.25602">
        <ele>117.19999694824</ele>
        <time>2013-03-13T15:22:28.000Z</time>
      </trkpt>
      <trkpt lat="44.89511" lon="0.25589">
        <ele>117.80000305176</ele>
        <time>2013-03-13T15:22:31.000Z</time>
      </trkpt>
      <trkpt lat="44.8951" lon="0.25576">
        <ele>117.80000305176</ele>
        <time>2013-03-13T15:22:34.000Z</time>
      </trkpt>
      <trkpt lat="44.89507" lon="0.25568">
        <ele>117.59999847412</ele>
        <time>2013-03-13T15:22:36.000Z</time>
      </trkpt>
      <trkpt lat="44.89497" lon="0.25559">
        <ele>117.40000152588</ele>
        <time>2013-03-13T15:22:39.000Z</time>
      </trkpt>
      <trkpt lat="44.89493" lon="0.25559">
        <ele>117.59999847412</ele>
        <time>2013-03-13T15:22:40.000Z</time>
      </trkpt>
      <trkpt lat="44.8949" lon="0.25558">
        <ele>117.80000305176</ele>
        <time>2013-03-13T15:22:41.000Z</time>
      </trkpt>
      <trkpt lat="44.89478" lon="0.25558">
        <ele>118.19999694824</ele>
        <time>2013-03-13T15:22:44.000Z</time>
      </trkpt>
      <trkpt lat="44.89471" lon="0.25556">
        <ele>118.40000152588</ele>
        <time>2013-03-13T15:22:46.000Z</time>
      </trkpt>
      <trkpt lat="44.89461" lon="0.25549">
        <ele>118.59999847412</ele>
        <time>2013-03-13T15:22:49.000Z</time>
      </trkpt>
      <trkpt lat="44.89458" lon="0.25546">
        <ele>118.80000305176</ele>
        <time>2013-03-13T15:22:50.000Z</time>
      </trkpt>
      <trkpt lat="44.89444" lon="0.25541">
        <ele>119.19999694824</ele>
        <time>2013-03-13T15:22:54.000Z</time>
      </trkpt>
      <trkpt lat="44.8944" lon="0.25541">
        <ele>119.40000152588</ele>
        <time>2013-03-13T15:22:55.000Z</time>
      </trkpt>
      <trkpt lat="44.89423" lon="0.25541">
        <ele>120.19999694824</ele>
        <time>2013-03-13T15:23:00.000Z</time>
      </trkpt>
      <trkpt lat="44.89405" lon="0.25541">
        <ele>119.40000152588</ele>
        <time>2013-03-13T15:23:05.000Z</time>
      </trkpt>
      <trkpt lat="44.89402" lon="0.25541">
        <ele>119</ele>
        <time>2013-03-13T15:23:06.000Z</time>
      </trkpt>
      <trkpt lat="44.89393" lon="0.25536">
        <ele>118.19999694824</ele>
        <time>2013-03-13T15:23:09.000Z</time>
      </trkpt>
      <trkpt lat="44.89392" lon="0.25532">
        <ele>118</ele>
        <time>2013-03-13T15:23:10.000Z</time>
      </trkpt>
      <trkpt lat="44.89393" lon="0.25522">
        <ele>118.19999694824</ele>
        <time>2013-03-13T15:23:12.000Z</time>
      </trkpt>
      <trkpt lat="44.89394" lon="0.25496">
        <ele>118.19999694824</ele>
        <time>2013-03-13T15:23:17.000Z</time>
      </trkpt>
      <trkpt lat="44.89391" lon="0.25475">
        <ele>117.59999847412</ele>
        <time>2013-03-13T15:23:21.000Z</time>
      </trkpt>
      <trkpt lat="44.89391" lon="0.25471">
        <ele>117.59999847412</ele>
        <time>2013-03-13T15:23:22.000Z</time>
      </trkpt>
      <trkpt lat="44.89392" lon="0.25459">
        <ele>117.40000152588</ele>
        <time>2013-03-13T15:23:25.000Z</time>
      </trkpt>
      <trkpt lat="44.89394" lon="0.25443">
        <ele>117.19999694824</ele>
        <time>2013-03-13T15:23:30.000Z</time>
      </trkpt>
      <trkpt lat="44.89394" lon="0.2544">
        <ele>117.19999694824</ele>
        <time>2013-03-13T15:23:31.000Z</time>
      </trkpt>
      <trkpt lat="44.89396" lon="0.25418">
        <ele>117</ele>
        <time>2013-03-13T15:23:37.000Z</time>
      </trkpt>
      <trkpt lat="44.89396" lon="0.25414">
        <ele>117</ele>
        <time>2013-03-13T15:23:38.000Z</time>
      </trkpt>
      <trkpt lat="44.89397" lon="0.25392">
        <ele>117.19999694824</ele>
        <time>2013-03-13T15:23:43.000Z</time>
      </trkpt>
      <trkpt lat="44.89397" lon="0.25388">
        <ele>117.19999694824</ele>
        <time>2013-03-13T15:23:44.000Z</time>
      </trkpt>
      <trkpt lat="44.89397" lon="0.25364">
        <ele>117.40000152588</ele>
        <time>2013-03-13T15:23:49.000Z</time>
      </trkpt>
      <trkpt lat="44.89397" lon="0.2536">
        <ele>117.40000152588</ele>
        <time>2013-03-13T15:23:50.000Z</time>
      </trkpt>
      <trkpt lat="44.89397" lon="0.25339">
        <ele>117.59999847412</ele>
        <time>2013-03-13T15:23:55.000Z</time>
      </trkpt>
      <trkpt lat="44.89398" lon="0.25311">
        <ele>117.19999694824</ele>
        <time>2013-03-13T15:24:01.000Z</time>
      </trkpt>
      <trkpt lat="44.89398" lon="0.25307">
        <ele>117.19999694824</ele>
        <time>2013-03-13T15:24:02.000Z</time>
      </trkpt>
      <trkpt lat="44.89398" lon="0.25283">
        <ele>116.59999847412</ele>
        <time>2013-03-13T15:24:07.000Z</time>
      </trkpt>
      <trkpt lat="44.89399" lon="0.25262">
        <ele>116</ele>
        <time>2013-03-13T15:24:12.000Z</time>
      </trkpt>
      <trkpt lat="44.89399" lon="0.25253">
        <ele>115.80000305176</ele>
        <time>2013-03-13T15:24:14.000Z</time>
      </trkpt>
      <trkpt lat="44.89399" lon="0.25244">
        <ele>115.59999847412</ele>
        <time>2013-03-13T15:24:16.000Z</time>
      </trkpt>
      <trkpt lat="44.894" lon="0.25226">
        <ele>114.59999847412</ele>
        <time>2013-03-13T15:24:20.000Z</time>
      </trkpt>
      <trkpt lat="44.894" lon="0.25215">
        <ele>114</ele>
        <time>2013-03-13T15:24:22.000Z</time>
      </trkpt>
      <trkpt lat="44.89401" lon="0.25197">
        <ele>113.19999694824</ele>
        <time>2013-03-13T15:24:26.000Z</time>
      </trkpt>
      <trkpt lat="44.89402" lon="0.25188">
        <ele>112.59999847412</ele>
        <time>2013-03-13T15:24:28.000Z</time>
      </trkpt>
      <trkpt lat="44.89399" lon="0.25171">
        <ele>111.80000305176</ele>
        <time>2013-03-13T15:24:32.000Z</time>
      </trkpt>
      <trkpt lat="44.89397" lon="0.25167">
        <ele>111.40000152588</ele>
        <time>2013-03-13T15:24:33.000Z</time>
      </trkpt>
      <trkpt lat="44.8939" lon="0.25158">
        <ele>110.59999847412</ele>
        <time>2013-03-13T15:24:36.000Z</time>
      </trkpt>
      <trkpt lat="44.89388" lon="0.25154">
        <ele>110.40000152588</ele>
        <time>2013-03-13T15:24:37.000Z</time>
      </trkpt>
      <trkpt lat="44.89388" lon="0.25149">
        <ele>110.19999694824</ele>
        <time>2013-03-13T15:24:38.000Z</time>
      </trkpt>
      <trkpt lat="44.89383" lon="0.25139">
        <ele>109.40000152588</ele>
        <time>2013-03-13T15:24:41.000Z</time>
      </trkpt>
      <trkpt lat="44.89378" lon="0.25135">
        <ele>109</ele>
        <time>2013-03-13T15:24:43.000Z</time>
      </trkpt>
      <trkpt lat="44.89372" lon="0.25133">
        <ele>108.80000305176</ele>
        <time>2013-03-13T15:24:45.000Z</time>
      </trkpt>
      <trkpt lat="44.89369" lon="0.25133">
        <ele>108.80000305176</ele>
        <time>2013-03-13T15:24:46.000Z</time>
      </trkpt>
      <trkpt lat="44.89351" lon="0.25131">
        <ele>108.40000152588</ele>
        <time>2013-03-13T15:24:52.000Z</time>
      </trkpt>
      <trkpt lat="44.89338" lon="0.25131">
        <ele>108.19999694824</ele>
        <time>2013-03-13T15:24:57.000Z</time>
      </trkpt>
      <trkpt lat="44.89331" lon="0.25128">
        <ele>108.19999694824</ele>
        <time>2013-03-13T15:25:00.000Z</time>
      </trkpt>
      <trkpt lat="44.89326" lon="0.25126">
        <ele>108.19999694824</ele>
        <time>2013-03-13T15:25:02.000Z</time>
      </trkpt>
      <trkpt lat="44.89314" lon="0.25116">
        <ele>107.80000305176</ele>
        <time>2013-03-13T15:25:07.000Z</time>
      </trkpt>
      <trkpt lat="44.89303" lon="0.25101">
        <ele>107.40000152588</ele>
        <time>2013-03-13T15:25:12.000Z</time>
      </trkpt>
      <trkpt lat="44.89301" lon="0.25098">
        <ele>107.40000152588</ele>
        <time>2013-03-13T15:25:13.000Z</time>
      </trkpt>
      <trkpt lat="44.89293" lon="0.25088">
        <ele>107.19999694824</ele>
        <time>2013-03-13T15:25:16.000Z</time>
      </trkpt>
      <trkpt lat="44.89291" lon="0.25076">
        <ele>106.40000152588</ele>
        <time>2013-03-13T15:25:19.000Z</time>
      </trkpt>
      <trkpt lat="44.89292" lon="0.25069">
        <ele>105.80000305176</ele>
        <time>2013-03-13T15:25:20.000Z</time>
      </trkpt>
      <trkpt lat="44.89287" lon="0.25052">
        <ele>104.40000152588</ele>
        <time>2013-03-13T15:25:24.000Z</time>
      </trkpt>
      <trkpt lat="44.89285" lon="0.2505">
        <ele>104.19999694824</ele>
        <time>2013-03-13T15:25:25.000Z</time>
      </trkpt>
      <trkpt lat="44.8928" lon="0.25053">
        <ele>104.40000152588</ele>
        <time>2013-03-13T15:25:27.000Z</time>
      </trkpt>
      <trkpt lat="44.89274" lon="0.25058">
        <ele>104.80000305176</ele>
        <time>2013-03-13T15:25:29.000Z</time>
      </trkpt>
      <trkpt lat="44.89269" lon="0.25062">
        <ele>105.40000152588</ele>
        <time>2013-03-13T15:25:31.000Z</time>
      </trkpt>
      <trkpt lat="44.89266" lon="0.25066">
        <ele>105.80000305176</ele>
        <time>2013-03-13T15:25:32.000Z</time>
      </trkpt>
      <trkpt lat="44.89256" lon="0.25081">
        <ele>107.59999847412</ele>
        <time>2013-03-13T15:25:36.000Z</time>
      </trkpt>
      <trkpt lat="44.8925" lon="0.251">
        <ele>108.59999847412</ele>
        <time>2013-03-13T15:25:40.000Z</time>
      </trkpt>
      <trkpt lat="44.89247" lon="0.25109">
        <ele>108.80000305176</ele>
        <time>2013-03-13T15:25:42.000Z</time>
      </trkpt>
      <trkpt lat="44.89238" lon="0.25127">
        <ele>109</ele>
        <time>2013-03-13T15:25:46.000Z</time>
      </trkpt>
      <trkpt lat="44.89236" lon="0.2513">
        <ele>109</ele>
        <time>2013-03-13T15:25:47.000Z</time>
      </trkpt>
      <trkpt lat="44.89227" lon="0.25138">
        <ele>108.80000305176</ele>
        <time>2013-03-13T15:25:50.000Z</time>
      </trkpt>
      <trkpt lat="44.8922" lon="0.25143">
        <ele>108.59999847412</ele>
        <time>2013-03-13T15:25:52.000Z</time>
      </trkpt>
      <trkpt lat="44.89215" lon="0.25148">
        <ele>108.59999847412</ele>
        <time>2013-03-13T15:25:54.000Z</time>
      </trkpt>
      <trkpt lat="44.89204" lon="0.2516">
        <ele>108.59999847412</ele>
        <time>2013-03-13T15:25:58.000Z</time>
      </trkpt>
      <trkpt lat="44.89201" lon="0.25162">
        <ele>108.59999847412</ele>
        <time>2013-03-13T15:25:59.000Z</time>
      </trkpt>
      <trkpt lat="44.89186" lon="0.25167">
        <ele>108</ele>
        <time>2013-03-13T15:26:03.000Z</time>
      </trkpt>
      <trkpt lat="44.89181" lon="0.25166">
        <ele>107.80000305176</ele>
        <time>2013-03-13T15:26:04.000Z</time>
      </trkpt>
      <trkpt lat="44.89168" lon="0.25167">
        <ele>107</ele>
        <time>2013-03-13T15:26:07.000Z</time>
      </trkpt>
      <trkpt lat="44.89164" lon="0.25166">
        <ele>106.59999847412</ele>
        <time>2013-03-13T15:26:08.000Z</time>
      </trkpt>
      <trkpt lat="44.8916" lon="0.25165">
        <ele>106.40000152588</ele>
        <time>2013-03-13T15:26:09.000Z</time>
      </trkpt>
      <trkpt lat="44.8915" lon="0.25163">
        <ele>105.40000152588</ele>
        <time>2013-03-13T15:26:12.000Z</time>
      </trkpt>
      <trkpt lat="44.89146" lon="0.25161">
        <ele>105</ele>
        <time>2013-03-13T15:26:13.000Z</time>
      </trkpt>
      <trkpt lat="44.89132" lon="0.25153">
        <ele>103.19999694824</ele>
        <time>2013-03-13T15:26:17.000Z</time>
      </trkpt>
      <trkpt lat="44.89128" lon="0.25151">
        <ele>102.80000305176</ele>
        <time>2013-03-13T15:26:18.000Z</time>
      </trkpt>
      <trkpt lat="44.89116" lon="0.25139">
        <ele>101</ele>
        <time>2013-03-13T15:26:22.000Z</time>
      </trkpt>
      <trkpt lat="44.89114" lon="0.25121">
        <ele>99.199996948242</ele>
        <time>2013-03-13T15:26:26.000Z</time>
      </trkpt>
      <trkpt lat="44.89115" lon="0.25116">
        <ele>99</ele>
        <time>2013-03-13T15:26:27.000Z</time>
      </trkpt>
      <trkpt lat="44.89117" lon="0.25105">
        <ele>98.199996948242</ele>
        <time>2013-03-13T15:26:29.000Z</time>
      </trkpt>
      <trkpt lat="44.8912" lon="0.25096">
        <ele>97.599998474121</ele>
        <time>2013-03-13T15:26:31.000Z</time>
      </trkpt>
      <trkpt lat="44.89122" lon="0.25087">
        <ele>97</ele>
        <time>2013-03-13T15:26:33.000Z</time>
      </trkpt>
      <trkpt lat="44.89123" lon="0.25078">
        <ele>95.800003051758</ele>
        <time>2013-03-13T15:26:35.000Z</time>
      </trkpt>
      <trkpt lat="44.89124" lon="0.25074">
        <ele>95.199996948242</ele>
        <time>2013-03-13T15:26:36.000Z</time>
      </trkpt>
      <trkpt lat="44.89122" lon="0.2506">
        <ele>92.400001525879</ele>
        <time>2013-03-13T15:26:40.000Z</time>
      </trkpt>
      <trkpt lat="44.89116" lon="0.25042">
        <ele>88.599998474121</ele>
        <time>2013-03-13T15:26:44.000Z</time>
      </trkpt>
      <trkpt lat="44.89115" lon="0.25037">
        <ele>87.599998474121</ele>
        <time>2013-03-13T15:26:45.000Z</time>
      </trkpt>
      <trkpt lat="44.89113" lon="0.25014">
        <ele>83.400001525879</ele>
        <time>2013-03-13T15:26:49.000Z</time>
      </trkpt>
      <trkpt lat="44.89114" lon="0.25009">
        <ele>82.400001525879</ele>
        <time>2013-03-13T15:26:50.000Z</time>
      </trkpt>
      <trkpt lat="44.89113" lon="0.24995">
        <ele>80</ele>
        <time>2013-03-13T15:26:53.000Z</time>
      </trkpt>
      <trkpt lat="44.89107" lon="0.24985">
        <ele>78.400001525879</ele>
        <time>2013-03-13T15:26:56.000Z</time>
      </trkpt>
      <trkpt lat="44.89094" lon="0.24981">
        <ele>77</ele>
        <time>2013-03-13T15:27:00.000Z</time>
      </trkpt>
      <trkpt lat="44.8909" lon="0.2498">
        <ele>76.800003051758</ele>
        <time>2013-03-13T15:27:01.000Z</time>
      </trkpt>
      <trkpt lat="44.89086" lon="0.24979">
        <ele>76.400001525879</ele>
        <time>2013-03-13T15:27:02.000Z</time>
      </trkpt>
      <trkpt lat="44.89067" lon="0.24971">
        <ele>75</ele>
        <time>2013-03-13T15:27:07.000Z</time>
      </trkpt>
      <trkpt lat="44.89049" lon="0.24958">
        <ele>73.199996948242</ele>
        <time>2013-03-13T15:27:12.000Z</time>
      </trkpt>
      <trkpt lat="44.89045" lon="0.24956">
        <ele>72.800003051758</ele>
        <time>2013-03-13T15:27:13.000Z</time>
      </trkpt>
      <trkpt lat="44.89031" lon="0.24954">
        <ele>72.400001525879</ele>
        <time>2013-03-13T15:27:16.000Z</time>
      </trkpt>
      <trkpt lat="44.89027" lon="0.24953">
        <ele>72.199996948242</ele>
        <time>2013-03-13T15:27:17.000Z</time>
      </trkpt>
      <trkpt lat="44.89015" lon="0.24954">
        <ele>72.199996948242</ele>
        <time>2013-03-13T15:27:20.000Z</time>
      </trkpt>
      <trkpt lat="44.89012" lon="0.24954">
        <ele>72.199996948242</ele>
        <time>2013-03-13T15:27:21.000Z</time>
      </trkpt>
      <trkpt lat="44.89008" lon="0.24954">
        <ele>72.199996948242</ele>
        <time>2013-03-13T15:27:22.000Z</time>
      </trkpt>
      <trkpt lat="44.88996" lon="0.24954">
        <ele>71.800003051758</ele>
        <time>2013-03-13T15:27:25.000Z</time>
      </trkpt>
      <trkpt lat="44.88989" lon="0.24953">
        <ele>71</ele>
        <time>2013-03-13T15:27:27.000Z</time>
      </trkpt>
      <trkpt lat="44.88984" lon="0.24953">
        <ele>70.599998474121</ele>
        <time>2013-03-13T15:27:28.000Z</time>
      </trkpt>
      <trkpt lat="44.88976" lon="0.24952">
        <ele>69.800003051758</ele>
        <time>2013-03-13T15:27:30.000Z</time>
      </trkpt>
      <trkpt lat="44.88968" lon="0.24953">
        <ele>69.400001525879</ele>
        <time>2013-03-13T15:27:32.000Z</time>
      </trkpt>
      <trkpt lat="44.88952" lon="0.24953">
        <ele>68</ele>
        <time>2013-03-13T15:27:36.000Z</time>
      </trkpt>
      <trkpt lat="44.88949" lon="0.24953">
        <ele>67.599998474121</ele>
        <time>2013-03-13T15:27:37.000Z</time>
      </trkpt>
      <trkpt lat="44.88937" lon="0.24954">
        <ele>67</ele>
        <time>2013-03-13T15:27:40.000Z</time>
      </trkpt>
      <trkpt lat="44.88929" lon="0.24956">
        <ele>66.599998474121</ele>
        <time>2013-03-13T15:27:42.000Z</time>
      </trkpt>
      <trkpt lat="44.88913" lon="0.24959">
        <ele>65.599998474121</ele>
        <time>2013-03-13T15:27:46.000Z</time>
      </trkpt>
      <trkpt lat="44.88909" lon="0.24959">
        <ele>65</ele>
        <time>2013-03-13T15:27:47.000Z</time>
      </trkpt>
      <trkpt lat="44.88904" lon="0.2496">
        <ele>64.400001525879</ele>
        <time>2013-03-13T15:27:48.000Z</time>
      </trkpt>
      <trkpt lat="44.88889" lon="0.24962">
        <ele>63</ele>
        <time>2013-03-13T15:27:51.000Z</time>
      </trkpt>
      <trkpt lat="44.88874" lon="0.24962">
        <ele>61</ele>
        <time>2013-03-13T15:27:55.000Z</time>
      </trkpt>
      <trkpt lat="44.8887" lon="0.24962">
        <ele>60.599998474121</ele>
        <time>2013-03-13T15:27:56.000Z</time>
      </trkpt>
      <trkpt lat="44.88866" lon="0.24962">
        <ele>60.200000762939</ele>
        <time>2013-03-13T15:27:57.000Z</time>
      </trkpt>
      <trkpt lat="44.88854" lon="0.24964">
        <ele>58.799999237061</ele>
        <time>2013-03-13T15:28:00.000Z</time>
      </trkpt>
      <trkpt lat="44.8885" lon="0.24965">
        <ele>58.400001525879</ele>
        <time>2013-03-13T15:28:01.000Z</time>
      </trkpt>
      <trkpt lat="44.88838" lon="0.24967">
        <ele>57.400001525879</ele>
        <time>2013-03-13T15:28:04.000Z</time>
      </trkpt>
      <trkpt lat="44.88831" lon="0.2497">
        <ele>57</ele>
        <time>2013-03-13T15:28:06.000Z</time>
      </trkpt>
      <trkpt lat="44.88816" lon="0.24979">
        <ele>56.200000762939</ele>
        <time>2013-03-13T15:28:10.000Z</time>
      </trkpt>
      <trkpt lat="44.88813" lon="0.24981">
        <ele>56</ele>
        <time>2013-03-13T15:28:11.000Z</time>
      </trkpt>
      <trkpt lat="44.88798" lon="0.24992">
        <ele>55.200000762939</ele>
        <time>2013-03-13T15:28:15.000Z</time>
      </trkpt>
      <trkpt lat="44.88795" lon="0.24994">
        <ele>55</ele>
        <time>2013-03-13T15:28:16.000Z</time>
      </trkpt>
      <trkpt lat="44.8878" lon="0.25009">
        <ele>53.200000762939</ele>
        <time>2013-03-13T15:28:21.000Z</time>
      </trkpt>
      <trkpt lat="44.88763" lon="0.25027">
        <ele>50.599998474121</ele>
        <time>2013-03-13T15:28:26.000Z</time>
      </trkpt>
      <trkpt lat="44.88755" lon="0.25033">
        <ele>49.400001525879</ele>
        <time>2013-03-13T15:28:28.000Z</time>
      </trkpt>
      <trkpt lat="44.88747" lon="0.25038">
        <ele>48</ele>
        <time>2013-03-13T15:28:30.000Z</time>
      </trkpt>
      <trkpt lat="44.88742" lon="0.25041">
        <ele>47.599998474121</ele>
        <time>2013-03-13T15:28:31.000Z</time>
      </trkpt>
      <trkpt lat="44.88728" lon="0.25046">
        <ele>46</ele>
        <time>2013-03-13T15:28:34.000Z</time>
      </trkpt>
      <trkpt lat="44.88719" lon="0.25048">
        <ele>44.799999237061</ele>
        <time>2013-03-13T15:28:36.000Z</time>
      </trkpt>
      <trkpt lat="44.88707" lon="0.2505">
        <ele>43.400001525879</ele>
        <time>2013-03-13T15:28:39.000Z</time>
      </trkpt>
      <trkpt lat="44.88698" lon="0.25051">
        <ele>42.200000762939</ele>
        <time>2013-03-13T15:28:41.000Z</time>
      </trkpt>
      <trkpt lat="44.88686" lon="0.25052">
        <ele>40.799999237061</ele>
        <time>2013-03-13T15:28:44.000Z</time>
      </trkpt>
      <trkpt lat="44.88675" lon="0.25054">
        <ele>39.400001525879</ele>
        <time>2013-03-13T15:28:47.000Z</time>
      </trkpt>
      <trkpt lat="44.88667" lon="0.25054">
        <ele>38.200000762939</ele>
        <time>2013-03-13T15:28:49.000Z</time>
      </trkpt>
      <trkpt lat="44.88665" lon="0.25056">
        <ele>38</ele>
        <time>2013-03-13T15:28:50.000Z</time>
      </trkpt>
      <trkpt lat="44.88662" lon="0.25074">
        <ele>37</ele>
        <time>2013-03-13T15:29:04.000Z</time>
      </trkpt>
      <trkpt lat="44.88661" lon="0.25076">
        <ele>36.799999237061</ele>
        <time>2013-03-13T15:29:05.000Z</time>
      </trkpt>
      <trkpt lat="44.8866" lon="0.25081">
        <ele>36.400001525879</ele>
        <time>2013-03-13T15:29:07.000Z</time>
      </trkpt>
      <trkpt lat="44.8866" lon="0.25092">
        <ele>36</ele>
        <time>2013-03-13T15:29:10.000Z</time>
      </trkpt>
      <trkpt lat="44.88658" lon="0.25109">
        <ele>35</ele>
        <time>2013-03-13T15:29:14.000Z</time>
      </trkpt>
      <trkpt lat="44.88658" lon="0.25113">
        <ele>34.799999237061</ele>
        <time>2013-03-13T15:29:15.000Z</time>
      </trkpt>
      <trkpt lat="44.88654" lon="0.25134">
        <ele>33.599998474121</ele>
        <time>2013-03-13T15:29:20.000Z</time>
      </trkpt>
      <trkpt lat="44.88651" lon="0.25143">
        <ele>33</ele>
        <time>2013-03-13T15:29:22.000Z</time>
      </trkpt>
      <trkpt lat="44.88646" lon="0.2516">
        <ele>32</ele>
        <time>2013-03-13T15:29:26.000Z</time>
      </trkpt>
      <trkpt lat="44.88642" lon="0.25173">
        <ele>31.39999961853</ele>
        <time>2013-03-13T15:29:29.000Z</time>
      </trkpt>
      <trkpt lat="44.88639" lon="0.25184">
        <ele>31.200000762939</ele>
        <time>2013-03-13T15:29:32.000Z</time>
      </trkpt>
      <trkpt lat="44.88637" lon="0.25193">
        <ele>31</ele>
        <time>2013-03-13T15:29:34.000Z</time>
      </trkpt>
      <trkpt lat="44.88632" lon="0.25209">
        <ele>30.60000038147</ele>
        <time>2013-03-13T15:29:38.000Z</time>
      </trkpt>
      <trkpt lat="44.88631" lon="0.25213">
        <ele>30.39999961853</ele>
        <time>2013-03-13T15:29:39.000Z</time>
      </trkpt>
      <trkpt lat="44.88624" lon="0.25234">
        <ele>30</ele>
        <time>2013-03-13T15:29:44.000Z</time>
      </trkpt>
      <trkpt lat="44.88623" lon="0.25238">
        <ele>29.799999237061</ele>
        <time>2013-03-13T15:29:45.000Z</time>
      </trkpt>
      <trkpt lat="44.88619" lon="0.25259">
        <ele>29.60000038147</ele>
        <time>2013-03-13T15:29:50.000Z</time>
      </trkpt>
      <trkpt lat="44.88618" lon="0.25264">
        <ele>29.60000038147</ele>
        <time>2013-03-13T15:29:51.000Z</time>
      </trkpt>
      <trkpt lat="44.88616" lon="0.25285">
        <ele>29.60000038147</ele>
        <time>2013-03-13T15:29:56.000Z</time>
      </trkpt>
      <trkpt lat="44.88616" lon="0.25289">
        <ele>29.60000038147</ele>
        <time>2013-03-13T15:29:57.000Z</time>
      </trkpt>
      <trkpt lat="44.88613" lon="0.2531">
        <ele>29.39999961853</ele>
        <time>2013-03-13T15:30:02.000Z</time>
      </trkpt>
      <trkpt lat="44.88612" lon="0.25314">
        <ele>29.39999961853</ele>
        <time>2013-03-13T15:30:03.000Z</time>
      </trkpt>
      <trkpt lat="44.8861" lon="0.25336">
        <ele>29.200000762939</ele>
        <time>2013-03-13T15:30:08.000Z</time>
      </trkpt>
      <trkpt lat="44.88609" lon="0.2534">
        <ele>29.200000762939</ele>
        <time>2013-03-13T15:30:09.000Z</time>
      </trkpt>
      <trkpt lat="44.88608" lon="0.25362">
        <ele>29.39999961853</ele>
        <time>2013-03-13T15:30:14.000Z</time>
      </trkpt>
      <trkpt lat="44.88607" lon="0.25371">
        <ele>29.39999961853</ele>
        <time>2013-03-13T15:30:16.000Z</time>
      </trkpt>
      <trkpt lat="44.88606" lon="0.25389">
        <ele>29.200000762939</ele>
        <time>2013-03-13T15:30:20.000Z</time>
      </trkpt>
      <trkpt lat="44.88604" lon="0.25397">
        <ele>29.200000762939</ele>
        <time>2013-03-13T15:30:22.000Z</time>
      </trkpt>
      <trkpt lat="44.88602" lon="0.25415">
        <ele>29.200000762939</ele>
        <time>2013-03-13T15:30:26.000Z</time>
      </trkpt>
      <trkpt lat="44.88602" lon="0.25419">
        <ele>29.200000762939</ele>
        <time>2013-03-13T15:30:27.000Z</time>
      </trkpt>
      <trkpt lat="44.88598" lon="0.2544">
        <ele>30.200000762939</ele>
        <time>2013-03-13T15:30:32.000Z</time>
      </trkpt>
      <trkpt lat="44.88593" lon="0.25461">
        <ele>31.200000762939</ele>
        <time>2013-03-13T15:30:37.000Z</time>
      </trkpt>
      <trkpt lat="44.88592" lon="0.25465">
        <ele>31.39999961853</ele>
        <time>2013-03-13T15:30:38.000Z</time>
      </trkpt>
      <trkpt lat="44.88588" lon="0.25485">
        <ele>32.200000762939</ele>
        <time>2013-03-13T15:30:43.000Z</time>
      </trkpt>
      <trkpt lat="44.88587" lon="0.2549">
        <ele>32.400001525879</ele>
        <time>2013-03-13T15:30:44.000Z</time>
      </trkpt>
      <trkpt lat="44.88594" lon="0.25501">
        <ele>34</ele>
        <time>2013-03-13T15:30:47.000Z</time>
      </trkpt>
      <trkpt lat="44.88598" lon="0.25516">
        <ele>34.799999237061</ele>
        <time>2013-03-13T15:30:51.000Z</time>
      </trkpt>
      <trkpt lat="44.88599" lon="0.2552">
        <ele>35</ele>
        <time>2013-03-13T15:30:52.000Z</time>
      </trkpt>
      <trkpt lat="44.88599" lon="0.2554">
        <ele>35.400001525879</ele>
        <time>2013-03-13T15:30:57.000Z</time>
      </trkpt>
      <trkpt lat="44.88598" lon="0.25543">
        <ele>35.400001525879</ele>
        <time>2013-03-13T15:30:58.000Z</time>
      </trkpt>
      <trkpt lat="44.88596" lon="0.25548">
        <ele>35.400001525879</ele>
        <time>2013-03-13T15:31:00.000Z</time>
      </trkpt>
      <trkpt lat="44.88596" lon="0.25556">
        <ele>35.599998474121</ele>
        <time>2013-03-13T15:31:02.000Z</time>
      </trkpt>
      <trkpt lat="44.88595" lon="0.25567">
        <ele>35.599998474121</ele>
        <time>2013-03-13T15:31:05.000Z</time>
      </trkpt>
      <trkpt lat="44.88594" lon="0.25571">
        <ele>35.799999237061</ele>
        <time>2013-03-13T15:31:06.000Z</time>
      </trkpt>
      <trkpt lat="44.88595" lon="0.25574">
        <ele>36</ele>
        <time>2013-03-13T15:31:07.000Z</time>
      </trkpt>
      <trkpt lat="44.88595" lon="0.25591">
        <ele>35.799999237061</ele>
        <time>2013-03-13T15:31:12.000Z</time>
      </trkpt>
      <trkpt lat="44.88596" lon="0.25595">
        <ele>35.799999237061</ele>
        <time>2013-03-13T15:31:13.000Z</time>
      </trkpt>
      <trkpt lat="44.88599" lon="0.25605">
        <ele>35.799999237061</ele>
        <time>2013-03-13T15:31:16.000Z</time>
      </trkpt>
      <trkpt lat="44.88599" lon="0.25613">
        <ele>35.599998474121</ele>
        <time>2013-03-13T15:31:18.000Z</time>
      </trkpt>
      <trkpt lat="44.88594" lon="0.25616">
        <ele>34.799999237061</ele>
        <time>2013-03-13T15:31:20.000Z</time>
      </trkpt>
      <trkpt lat="44.88582" lon="0.25616">
        <ele>33.200000762939</ele>
        <time>2013-03-13T15:31:23.000Z</time>
      </trkpt>
      <trkpt lat="44.88575" lon="0.25614">
        <ele>32.599998474121</ele>
        <time>2013-03-13T15:31:25.000Z</time>
      </trkpt>
      <trkpt lat="44.88559" lon="0.25607">
        <ele>31.39999961853</ele>
        <time>2013-03-13T15:31:30.000Z</time>
      </trkpt>
      <trkpt lat="44.88556" lon="0.25606">
        <ele>31</ele>
        <time>2013-03-13T15:31:31.000Z</time>
      </trkpt>
      <trkpt lat="44.88539" lon="0.25599">
        <ele>29.60000038147</ele>
        <time>2013-03-13T15:31:36.000Z</time>
      </trkpt>
      <trkpt lat="44.88536" lon="0.25598">
        <ele>29.39999961853</ele>
        <time>2013-03-13T15:31:37.000Z</time>
      </trkpt>
      <trkpt lat="44.8852" lon="0.25594">
        <ele>27.799999237061</ele>
        <time>2013-03-13T15:31:42.000Z</time>
      </trkpt>
      <trkpt lat="44.88517" lon="0.25593">
        <ele>27.60000038147</ele>
        <time>2013-03-13T15:31:43.000Z</time>
      </trkpt>
      <trkpt lat="44.88501" lon="0.25593">
        <ele>25.799999237061</ele>
        <time>2013-03-13T15:31:48.000Z</time>
      </trkpt>
      <trkpt lat="44.88498" lon="0.25594">
        <ele>25.799999237061</ele>
        <time>2013-03-13T15:31:49.000Z</time>
      </trkpt>
      <trkpt lat="44.88482" lon="0.25601">
        <ele>25.200000762939</ele>
        <time>2013-03-13T15:31:54.000Z</time>
      </trkpt>
      <trkpt lat="44.88479" lon="0.25602">
        <ele>25.200000762939</ele>
        <time>2013-03-13T15:31:55.000Z</time>
      </trkpt>
      <trkpt lat="44.88468" lon="0.25606">
        <ele>24.799999237061</ele>
        <time>2013-03-13T15:31:59.000Z</time>
      </trkpt>
      <trkpt lat="44.8846" lon="0.25611">
        <ele>24.39999961853</ele>
        <time>2013-03-13T15:32:02.000Z</time>
      </trkpt>
      <trkpt lat="44.88454" lon="0.25614">
        <ele>24.200000762939</ele>
        <time>2013-03-13T15:32:04.000Z</time>
      </trkpt>
      <trkpt lat="44.8844" lon="0.25619">
        <ele>23.799999237061</ele>
        <time>2013-03-13T15:32:09.000Z</time>
      </trkpt>
      <trkpt lat="44.88436" lon="0.2562">
        <ele>23.60000038147</ele>
        <time>2013-03-13T15:32:10.000Z</time>
      </trkpt>
      <trkpt lat="44.88421" lon="0.25624">
        <ele>23</ele>
        <time>2013-03-13T15:32:15.000Z</time>
      </trkpt>
      <trkpt lat="44.88414" lon="0.25626">
        <ele>22.799999237061</ele>
        <time>2013-03-13T15:32:17.000Z</time>
      </trkpt>
      <trkpt lat="44.88402" lon="0.25625">
        <ele>23</ele>
        <time>2013-03-13T15:32:21.000Z</time>
      </trkpt>
      <trkpt lat="44.88395" lon="0.25625">
        <ele>23</ele>
        <time>2013-03-13T15:32:23.000Z</time>
      </trkpt>
      <trkpt lat="44.88382" lon="0.25624">
        <ele>23.200000762939</ele>
        <time>2013-03-13T15:32:27.000Z</time>
      </trkpt>
      <trkpt lat="44.88379" lon="0.25624">
        <ele>23.200000762939</ele>
        <time>2013-03-13T15:32:28.000Z</time>
      </trkpt>
      <trkpt lat="44.88364" lon="0.25619">
        <ele>23.39999961853</ele>
        <time>2013-03-13T15:32:33.000Z</time>
      </trkpt>
      <trkpt lat="44.88361" lon="0.25618">
        <ele>23.39999961853</ele>
        <time>2013-03-13T15:32:34.000Z</time>
      </trkpt>
      <trkpt lat="44.88345" lon="0.25613">
        <ele>23.39999961853</ele>
        <time>2013-03-13T15:32:39.000Z</time>
      </trkpt>
      <trkpt lat="44.88342" lon="0.25612">
        <ele>23.60000038147</ele>
        <time>2013-03-13T15:32:40.000Z</time>
      </trkpt>
      <trkpt lat="44.88327" lon="0.25607">
        <ele>23.39999961853</ele>
        <time>2013-03-13T15:32:45.000Z</time>
      </trkpt>
      <trkpt lat="44.88324" lon="0.25606">
        <ele>23.39999961853</ele>
        <time>2013-03-13T15:32:46.000Z</time>
      </trkpt>
      <trkpt lat="44.88308" lon="0.25601">
        <ele>23.200000762939</ele>
        <time>2013-03-13T15:32:51.000Z</time>
      </trkpt>
      <trkpt lat="44.8829" lon="0.25595">
        <ele>22.799999237061</ele>
        <time>2013-03-13T15:32:57.000Z</time>
      </trkpt>
      <trkpt lat="44.88274" lon="0.2559">
        <ele>22.39999961853</ele>
        <time>2013-03-13T15:33:02.000Z</time>
      </trkpt>
      <trkpt lat="44.88271" lon="0.25588">
        <ele>22.39999961853</ele>
        <time>2013-03-13T15:33:03.000Z</time>
      </trkpt>
      <trkpt lat="44.88255" lon="0.25581">
        <ele>22</ele>
        <time>2013-03-13T15:33:08.000Z</time>
      </trkpt>
      <trkpt lat="44.88252" lon="0.2558">
        <ele>22</ele>
        <time>2013-03-13T15:33:09.000Z</time>
      </trkpt>
      <trkpt lat="44.8824" lon="0.25574">
        <ele>21.799999237061</ele>
        <time>2013-03-13T15:33:13.000Z</time>
      </trkpt>
      <trkpt lat="44.88234" lon="0.2557">
        <ele>21.799999237061</ele>
        <time>2013-03-13T15:33:15.000Z</time>
      </trkpt>
      <trkpt lat="44.88222" lon="0.25562">
        <ele>21.799999237061</ele>
        <time>2013-03-13T15:33:19.000Z</time>
      </trkpt>
      <trkpt lat="44.88216" lon="0.25558">
        <ele>21.60000038147</ele>
        <time>2013-03-13T15:33:21.000Z</time>
      </trkpt>
      <trkpt lat="44.88205" lon="0.25548">
        <ele>21.60000038147</ele>
        <time>2013-03-13T15:33:25.000Z</time>
      </trkpt>
      <trkpt lat="44.882" lon="0.25543">
        <ele>21.39999961853</ele>
        <time>2013-03-13T15:33:27.000Z</time>
      </trkpt>
      <trkpt lat="44.88187" lon="0.25531">
        <ele>21.200000762939</ele>
        <time>2013-03-13T15:33:32.000Z</time>
      </trkpt>
      <trkpt lat="44.88185" lon="0.25528">
        <ele>21.200000762939</ele>
        <time>2013-03-13T15:33:33.000Z</time>
      </trkpt>
      <trkpt lat="44.88175" lon="0.25517">
        <ele>21</ele>
        <time>2013-03-13T15:33:37.000Z</time>
      </trkpt>
      <trkpt lat="44.8817" lon="0.25511">
        <ele>21</ele>
        <time>2013-03-13T15:33:39.000Z</time>
      </trkpt>
      <trkpt lat="44.88157" lon="0.25498">
        <ele>21</ele>
        <time>2013-03-13T15:33:44.000Z</time>
      </trkpt>
      <trkpt lat="44.88155" lon="0.25496">
        <ele>21</ele>
        <time>2013-03-13T15:33:45.000Z</time>
      </trkpt>
      <trkpt lat="44.88143" lon="0.25489">
        <ele>21.200000762939</ele>
        <time>2013-03-13T15:33:49.000Z</time>
      </trkpt>
      <trkpt lat="44.88136" lon="0.25487">
        <ele>21.39999961853</ele>
        <time>2013-03-13T15:33:51.000Z</time>
      </trkpt>
      <trkpt lat="44.88117" lon="0.25483">
        <ele>21.60000038147</ele>
        <time>2013-03-13T15:33:57.000Z</time>
      </trkpt>
      <trkpt lat="44.88102" lon="0.25478">
        <ele>21.799999237061</ele>
        <time>2013-03-13T15:34:02.000Z</time>
      </trkpt>
      <trkpt lat="44.88099" lon="0.25478">
        <ele>21.799999237061</ele>
        <time>2013-03-13T15:34:03.000Z</time>
      </trkpt>
      <trkpt lat="44.88084" lon="0.25472">
        <ele>21.799999237061</ele>
        <time>2013-03-13T15:34:08.000Z</time>
      </trkpt>
      <trkpt lat="44.88081" lon="0.25471">
        <ele>22</ele>
        <time>2013-03-13T15:34:09.000Z</time>
      </trkpt>
      <trkpt lat="44.88066" lon="0.25466">
        <ele>22</ele>
        <time>2013-03-13T15:34:14.000Z</time>
      </trkpt>
      <trkpt lat="44.88063" lon="0.25465">
        <ele>22</ele>
        <time>2013-03-13T15:34:15.000Z</time>
      </trkpt>
      <trkpt lat="44.88051" lon="0.25463">
        <ele>22</ele>
        <time>2013-03-13T15:34:19.000Z</time>
      </trkpt>
      <trkpt lat="44.88045" lon="0.25462">
        <ele>22</ele>
        <time>2013-03-13T15:34:21.000Z</time>
      </trkpt>
      <trkpt lat="44.88029" lon="0.2546">
        <ele>22</ele>
        <time>2013-03-13T15:34:26.000Z</time>
      </trkpt>
      <trkpt lat="44.88026" lon="0.2546">
        <ele>22</ele>
        <time>2013-03-13T15:34:27.000Z</time>
      </trkpt>
      <trkpt lat="44.88014" lon="0.25461">
        <ele>22</ele>
        <time>2013-03-13T15:34:31.000Z</time>
      </trkpt>
      <trkpt lat="44.88008" lon="0.25462">
        <ele>22</ele>
        <time>2013-03-13T15:34:33.000Z</time>
      </trkpt>
      <trkpt lat="44.87996" lon="0.25464">
        <ele>21.799999237061</ele>
        <time>2013-03-13T15:34:37.000Z</time>
      </trkpt>
      <trkpt lat="44.87989" lon="0.25466">
        <ele>21.799999237061</ele>
        <time>2013-03-13T15:34:39.000Z</time>
      </trkpt>
      <trkpt lat="44.8798" lon="0.25468">
        <ele>21.799999237061</ele>
        <time>2013-03-13T15:34:42.000Z</time>
      </trkpt>
      <trkpt lat="44.8797" lon="0.2547">
        <ele>21.60000038147</ele>
        <time>2013-03-13T15:34:45.000Z</time>
      </trkpt>
      <trkpt lat="44.87957" lon="0.2547">
        <ele>21.60000038147</ele>
        <time>2013-03-13T15:34:49.000Z</time>
      </trkpt>
      <trkpt lat="44.87951" lon="0.25468">
        <ele>21.60000038147</ele>
        <time>2013-03-13T15:34:51.000Z</time>
      </trkpt>
      <trkpt lat="44.87941" lon="0.25464">
        <ele>21.39999961853</ele>
        <time>2013-03-13T15:34:54.000Z</time>
      </trkpt>
      <trkpt lat="44.87931" lon="0.2546">
        <ele>21.39999961853</ele>
        <time>2013-03-13T15:34:57.000Z</time>
      </trkpt>
      <trkpt lat="44.87925" lon="0.25456">
        <ele>21.39999961853</ele>
        <time>2013-03-13T15:34:59.000Z</time>
      </trkpt>
      <trkpt lat="44.87914" lon="0.25448">
        <ele>21.39999961853</ele>
        <time>2013-03-13T15:35:03.000Z</time>
      </trkpt>
      <trkpt lat="44.87902" lon="0.25439">
        <ele>21.200000762939</ele>
        <time>2013-03-13T15:35:07.000Z</time>
      </trkpt>
      <trkpt lat="44.87897" lon="0.25434">
        <ele>21.200000762939</ele>
        <time>2013-03-13T15:35:09.000Z</time>
      </trkpt>
      <trkpt lat="44.87889" lon="0.25426">
        <ele>21.200000762939</ele>
        <time>2013-03-13T15:35:12.000Z</time>
      </trkpt>
      <trkpt lat="44.87881" lon="0.25418">
        <ele>21</ele>
        <time>2013-03-13T15:35:15.000Z</time>
      </trkpt>
      <trkpt lat="44.87874" lon="0.2541">
        <ele>21</ele>
        <time>2013-03-13T15:35:18.000Z</time>
      </trkpt>
      <trkpt lat="44.87866" lon="0.25402">
        <ele>20.799999237061</ele>
        <time>2013-03-13T15:35:21.000Z</time>
      </trkpt>
      <trkpt lat="44.87859" lon="0.25393">
        <ele>20.799999237061</ele>
        <time>2013-03-13T15:35:24.000Z</time>
      </trkpt>
      <trkpt lat="44.87852" lon="0.25385">
        <ele>20.799999237061</ele>
        <time>2013-03-13T15:35:27.000Z</time>
      </trkpt>
      <trkpt lat="44.87844" lon="0.25377">
        <ele>20.60000038147</ele>
        <time>2013-03-13T15:35:30.000Z</time>
      </trkpt>
      <trkpt lat="44.87837" lon="0.25368">
        <ele>20.60000038147</ele>
        <time>2013-03-13T15:35:33.000Z</time>
      </trkpt>
      <trkpt lat="44.87829" lon="0.2536">
        <ele>20.60000038147</ele>
        <time>2013-03-13T15:35:36.000Z</time>
      </trkpt>
      <trkpt lat="44.87822" lon="0.25351">
        <ele>20.799999237061</ele>
        <time>2013-03-13T15:35:39.000Z</time>
      </trkpt>
      <trkpt lat="44.87817" lon="0.25345">
        <ele>20.799999237061</ele>
        <time>2013-03-13T15:35:41.000Z</time>
      </trkpt>
      <trkpt lat="44.87808" lon="0.25332">
        <ele>20.799999237061</ele>
        <time>2013-03-13T15:35:45.000Z</time>
      </trkpt>
      <trkpt lat="44.87801" lon="0.25322">
        <ele>20.799999237061</ele>
        <time>2013-03-13T15:35:48.000Z</time>
      </trkpt>
      <trkpt lat="44.87796" lon="0.25311">
        <ele>20.799999237061</ele>
        <time>2013-03-13T15:35:51.000Z</time>
      </trkpt>
      <trkpt lat="44.87792" lon="0.25304">
        <ele>20.799999237061</ele>
        <time>2013-03-13T15:35:53.000Z</time>
      </trkpt>
      <trkpt lat="44.87785" lon="0.25288">
        <ele>20.60000038147</ele>
        <time>2013-03-13T15:35:57.000Z</time>
      </trkpt>
      <trkpt lat="44.8778" lon="0.25277">
        <ele>20.60000038147</ele>
        <time>2013-03-13T15:36:00.000Z</time>
      </trkpt>
      <trkpt lat="44.87776" lon="0.25266">
        <ele>20.60000038147</ele>
        <time>2013-03-13T15:36:03.000Z</time>
      </trkpt>
      <trkpt lat="44.87771" lon="0.25254">
        <ele>20.60000038147</ele>
        <time>2013-03-13T15:36:06.000Z</time>
      </trkpt>
      <trkpt lat="44.87767" lon="0.25242">
        <ele>20.799999237061</ele>
        <time>2013-03-13T15:36:09.000Z</time>
      </trkpt>
      <trkpt lat="44.87763" lon="0.25235">
        <ele>20.799999237061</ele>
        <time>2013-03-13T15:36:11.000Z</time>
      </trkpt>
      <trkpt lat="44.87756" lon="0.2522">
        <ele>20.799999237061</ele>
        <time>2013-03-13T15:36:15.000Z</time>
      </trkpt>
      <trkpt lat="44.87753" lon="0.25218">
        <ele>20.799999237061</ele>
        <time>2013-03-13T15:36:16.000Z</time>
      </trkpt>
      <trkpt lat="44.87737" lon="0.25211">
        <ele>21</ele>
        <time>2013-03-13T15:36:21.000Z</time>
      </trkpt>
      <trkpt lat="44.87728" lon="0.25198">
        <ele>21</ele>
        <time>2013-03-13T15:36:25.000Z</time>
      </trkpt>
      <trkpt lat="44.87726" lon="0.25189">
        <ele>21</ele>
        <time>2013-03-13T15:36:27.000Z</time>
      </trkpt>
      <trkpt lat="44.87725" lon="0.25172">
        <ele>21</ele>
        <time>2013-03-13T15:36:31.000Z</time>
      </trkpt>
      <trkpt lat="44.87724" lon="0.25163">
        <ele>21</ele>
        <time>2013-03-13T15:36:33.000Z</time>
      </trkpt>
      <trkpt lat="44.87723" lon="0.25141">
        <ele>21</ele>
        <time>2013-03-13T15:36:38.000Z</time>
      </trkpt>
      <trkpt lat="44.87723" lon="0.25136">
        <ele>21</ele>
        <time>2013-03-13T15:36:39.000Z</time>
      </trkpt>
      <trkpt lat="44.87722" lon="0.25114">
        <ele>21</ele>
        <time>2013-03-13T15:36:44.000Z</time>
      </trkpt>
      <trkpt lat="44.87722" lon="0.25109">
        <ele>21</ele>
        <time>2013-03-13T15:36:45.000Z</time>
      </trkpt>
      <trkpt lat="44.87723" lon="0.25086">
        <ele>21</ele>
        <time>2013-03-13T15:36:50.000Z</time>
      </trkpt>
      <trkpt lat="44.87723" lon="0.25082">
        <ele>21</ele>
        <time>2013-03-13T15:36:51.000Z</time>
      </trkpt>
      <trkpt lat="44.87724" lon="0.25055">
        <ele>21</ele>
        <time>2013-03-13T15:36:57.000Z</time>
      </trkpt>
      <trkpt lat="44.87726" lon="0.25028">
        <ele>21.200000762939</ele>
        <time>2013-03-13T15:37:03.000Z</time>
      </trkpt>
      <trkpt lat="44.87727" lon="0.25023">
        <ele>21.200000762939</ele>
        <time>2013-03-13T15:37:04.000Z</time>
      </trkpt>
      <trkpt lat="44.8773" lon="0.25001">
        <ele>21.39999961853</ele>
        <time>2013-03-13T15:37:09.000Z</time>
      </trkpt>
      <trkpt lat="44.87731" lon="0.24997">
        <ele>21.39999961853</ele>
        <time>2013-03-13T15:37:10.000Z</time>
      </trkpt>
      <trkpt lat="44.87734" lon="0.24976">
        <ele>21.60000038147</ele>
        <time>2013-03-13T15:37:15.000Z</time>
      </trkpt>
      <trkpt lat="44.87735" lon="0.24967">
        <ele>21.60000038147</ele>
        <time>2013-03-13T15:37:17.000Z</time>
      </trkpt>
      <trkpt lat="44.87739" lon="0.24951">
        <ele>21.60000038147</ele>
        <time>2013-03-13T15:37:21.000Z</time>
      </trkpt>
      <trkpt lat="44.87741" lon="0.24943">
        <ele>21.60000038147</ele>
        <time>2013-03-13T15:37:23.000Z</time>
      </trkpt>
      <trkpt lat="44.87744" lon="0.24926">
        <ele>21.799999237061</ele>
        <time>2013-03-13T15:37:27.000Z</time>
      </trkpt>
      <trkpt lat="44.87745" lon="0.24917">
        <ele>21.799999237061</ele>
        <time>2013-03-13T15:37:29.000Z</time>
      </trkpt>
      <trkpt lat="44.87747" lon="0.249">
        <ele>21.799999237061</ele>
        <time>2013-03-13T15:37:33.000Z</time>
      </trkpt>
      <trkpt lat="44.87747" lon="0.24881">
        <ele>21.799999237061</ele>
        <time>2013-03-13T15:37:37.000Z</time>
      </trkpt>
      <trkpt lat="44.87748" lon="0.24872">
        <ele>21.799999237061</ele>
        <time>2013-03-13T15:37:39.000Z</time>
      </trkpt>
      <trkpt lat="44.87748" lon="0.24853">
        <ele>21.799999237061</ele>
        <time>2013-03-13T15:37:43.000Z</time>
      </trkpt>
      <trkpt lat="44.87748" lon="0.24844">
        <ele>21.799999237061</ele>
        <time>2013-03-13T15:37:45.000Z</time>
      </trkpt>
      <trkpt lat="44.87747" lon="0.24826">
        <ele>21.799999237061</ele>
        <time>2013-03-13T15:37:49.000Z</time>
      </trkpt>
      <trkpt lat="44.87747" lon="0.24817">
        <ele>21.799999237061</ele>
        <time>2013-03-13T15:37:51.000Z</time>
      </trkpt>
      <trkpt lat="44.87744" lon="0.24805">
        <ele>21.799999237061</ele>
        <time>2013-03-13T15:37:54.000Z</time>
      </trkpt>
      <trkpt lat="44.87741" lon="0.24804">
        <ele>21.799999237061</ele>
        <time>2013-03-13T15:37:55.000Z</time>
      </trkpt>
      <trkpt lat="44.87735" lon="0.24803">
        <ele>21.799999237061</ele>
        <time>2013-03-13T15:37:57.000Z</time>
      </trkpt>
      <trkpt lat="44.87728" lon="0.24803">
        <ele>21.799999237061</ele>
        <time>2013-03-13T15:37:59.000Z</time>
      </trkpt>
      <trkpt lat="44.87714" lon="0.24805">
        <ele>21.60000038147</ele>
        <time>2013-03-13T15:38:03.000Z</time>
      </trkpt>
      <trkpt lat="44.87707" lon="0.24806">
        <ele>21.60000038147</ele>
        <time>2013-03-13T15:38:05.000Z</time>
      </trkpt>
      <trkpt lat="44.87693" lon="0.24808">
        <ele>21.39999961853</ele>
        <time>2013-03-13T15:38:09.000Z</time>
      </trkpt>
      <trkpt lat="44.87686" lon="0.24809">
        <ele>21.39999961853</ele>
        <time>2013-03-13T15:38:11.000Z</time>
      </trkpt>
      <trkpt lat="44.87673" lon="0.24812">
        <ele>21.200000762939</ele>
        <time>2013-03-13T15:38:15.000Z</time>
      </trkpt>
      <trkpt lat="44.8767" lon="0.24813">
        <ele>21.200000762939</ele>
        <time>2013-03-13T15:38:16.000Z</time>
      </trkpt>
      <trkpt lat="44.87654" lon="0.24816">
        <ele>21</ele>
        <time>2013-03-13T15:38:21.000Z</time>
      </trkpt>
      <trkpt lat="44.87634" lon="0.24822">
        <ele>20.60000038147</ele>
        <time>2013-03-13T15:38:27.000Z</time>
      </trkpt>
      <trkpt lat="44.8763" lon="0.24822">
        <ele>20.60000038147</ele>
        <time>2013-03-13T15:38:28.000Z</time>
      </trkpt>
      <trkpt lat="44.87614" lon="0.24827">
        <ele>20.39999961853</ele>
        <time>2013-03-13T15:38:33.000Z</time>
      </trkpt>
      <trkpt lat="44.87611" lon="0.24829">
        <ele>20.200000762939</ele>
        <time>2013-03-13T15:38:34.000Z</time>
      </trkpt>
      <trkpt lat="44.876" lon="0.24846">
        <ele>20</ele>
        <time>2013-03-13T15:38:39.000Z</time>
      </trkpt>
      <trkpt lat="44.87587" lon="0.24868">
        <ele>19.60000038147</ele>
        <time>2013-03-13T15:38:45.000Z</time>
      </trkpt>
      <trkpt lat="44.87571" lon="0.24874">
        <ele>19.60000038147</ele>
        <time>2013-03-13T15:38:50.000Z</time>
      </trkpt>
      <trkpt lat="44.87568" lon="0.24874">
        <ele>19.60000038147</ele>
        <time>2013-03-13T15:38:51.000Z</time>
      </trkpt>
      <trkpt lat="44.87555" lon="0.24875">
        <ele>19.799999237061</ele>
        <time>2013-03-13T15:38:55.000Z</time>
      </trkpt>
      <trkpt lat="44.87548" lon="0.24873">
        <ele>19.799999237061</ele>
        <time>2013-03-13T15:38:57.000Z</time>
      </trkpt>
      <trkpt lat="44.87542" lon="0.24871">
        <ele>20</ele>
        <time>2013-03-13T15:38:59.000Z</time>
      </trkpt>
      <trkpt lat="44.87529" lon="0.24864">
        <ele>20</ele>
        <time>2013-03-13T15:39:03.000Z</time>
      </trkpt>
      <trkpt lat="44.87526" lon="0.24863">
        <ele>20</ele>
        <time>2013-03-13T15:39:04.000Z</time>
      </trkpt>
      <trkpt lat="44.87495" lon="0.24853">
        <ele>20</ele>
        <time>2013-03-13T15:40:27.000Z</time>
      </trkpt>
      <trkpt lat="44.87492" lon="0.24851">
        <ele>20</ele>
        <time>2013-03-13T15:40:29.000Z</time>
      </trkpt>
      <trkpt lat="44.8748" lon="0.24846">
        <ele>19.799999237061</ele>
        <time>2013-03-13T15:40:34.000Z</time>
      </trkpt>
      <trkpt lat="44.87477" lon="0.24845">
        <ele>19.799999237061</ele>
        <time>2013-03-13T15:40:35.000Z</time>
      </trkpt>
      <trkpt lat="44.87463" lon="0.24839">
        <ele>19.60000038147</ele>
        <time>2013-03-13T15:40:40.000Z</time>
      </trkpt>
    </trkseg>
  </trk>
</gpx>